<?xml version="1.0" encoding="UTF-8" standalone="no" ?>
<gpx xmlns="http://www.topografix.com/GPX/1/1" xmlns:xsi="http://www.w3.org/2001/XMLSchema-instance" xsi:schemaLocation="http://www.topografix.com/GPX/1/1 http://www.topografix.com/GPX/1/1/gpx.xsd" version="1.1" creator="VisuGPX - https://www.visugpx.com">
  <metadata>
    <name> St Jeannet - Mouton d'Anou (aller)</name>
  </metadata>
  <trk>
    <name><![CDATA[20190427_091430.gpx]]></name>
    <trkseg>
      <trkpt lat="43.74973" lon="7.14454">
        <ele>337.8372</ele>
        <time>2019-04-27T07:16:42Z</time>
      </trkpt>
      <trkpt lat="43.74972" lon="7.14463">
        <ele>338.19717</ele>
        <time>2019-04-27T07:17:35Z</time>
      </trkpt>
      <trkpt lat="43.74975" lon="7.14462">
        <ele>337.8972</ele>
        <time>2019-04-27T07:18:52Z</time>
      </trkpt>
      <trkpt lat="43.74977" lon="7.14462">
        <ele>337.3292</ele>
        <time>2019-04-27T07:19:31Z</time>
      </trkpt>
      <trkpt lat="43.74979" lon="7.14464">
        <ele>337.5652</ele>
        <time>2019-04-27T07:20:22Z</time>
      </trkpt>
      <trkpt lat="43.74977" lon="7.14464">
        <ele>336.4322</ele>
        <time>2019-04-27T07:20:57Z</time>
      </trkpt>
      <trkpt lat="43.74976" lon="7.14455">
        <ele>338.6822</ele>
        <time>2019-04-27T07:22:25Z</time>
      </trkpt>
      <trkpt lat="43.74977" lon="7.1443">
        <ele>343.17917</ele>
        <time>2019-04-27T07:22:51Z</time>
      </trkpt>
      <trkpt lat="43.74974" lon="7.14419">
        <ele>344.4272</ele>
        <time>2019-04-27T07:22:56Z</time>
      </trkpt>
      <trkpt lat="43.74976" lon="7.14408">
        <ele>346.54318</ele>
        <time>2019-04-27T07:23:06Z</time>
      </trkpt>
      <trkpt lat="43.7498" lon="7.14407">
        <ele>347.58417</ele>
        <time>2019-04-27T07:23:11Z</time>
      </trkpt>
      <trkpt lat="43.74981" lon="7.144">
        <ele>349.09717</ele>
        <time>2019-04-27T07:23:31Z</time>
      </trkpt>
      <trkpt lat="43.74974" lon="7.14395">
        <ele>349.44617</ele>
        <time>2019-04-27T07:23:41Z</time>
      </trkpt>
      <trkpt lat="43.74968" lon="7.14392">
        <ele>349.6212</ele>
        <time>2019-04-27T07:23:46Z</time>
      </trkpt>
      <trkpt lat="43.74963" lon="7.14389">
        <ele>350.0612</ele>
        <time>2019-04-27T07:23:52Z</time>
      </trkpt>
      <trkpt lat="43.74958" lon="7.14385">
        <ele>350.68417</ele>
        <time>2019-04-27T07:24:01Z</time>
      </trkpt>
      <trkpt lat="43.7495" lon="7.14379">
        <ele>351.3202</ele>
        <time>2019-04-27T07:24:17Z</time>
      </trkpt>
      <trkpt lat="43.74933" lon="7.14371">
        <ele>351.64417</ele>
        <time>2019-04-27T07:24:27Z</time>
      </trkpt>
      <trkpt lat="43.74922" lon="7.14364">
        <ele>351.7472</ele>
        <time>2019-04-27T07:24:37Z</time>
      </trkpt>
      <trkpt lat="43.74913" lon="7.1436">
        <ele>352.1782</ele>
        <time>2019-04-27T07:24:47Z</time>
      </trkpt>
      <trkpt lat="43.74909" lon="7.14358">
        <ele>352.00317</ele>
        <time>2019-04-27T07:24:52Z</time>
      </trkpt>
      <trkpt lat="43.74901" lon="7.14353">
        <ele>352.58417</ele>
        <time>2019-04-27T07:25:02Z</time>
      </trkpt>
      <trkpt lat="43.74893" lon="7.1435">
        <ele>352.77017</ele>
        <time>2019-04-27T07:25:12Z</time>
      </trkpt>
      <trkpt lat="43.74877" lon="7.14343">
        <ele>353.34518</ele>
        <time>2019-04-27T07:25:22Z</time>
      </trkpt>
      <trkpt lat="43.74868" lon="7.14345">
        <ele>353.6472</ele>
        <time>2019-04-27T07:25:32Z</time>
      </trkpt>
      <trkpt lat="43.74861" lon="7.14347">
        <ele>353.68317</ele>
        <time>2019-04-27T07:25:41Z</time>
      </trkpt>
      <trkpt lat="43.74856" lon="7.14347">
        <ele>353.78018</ele>
        <time>2019-04-27T07:25:47Z</time>
      </trkpt>
      <trkpt lat="43.74848" lon="7.14346">
        <ele>353.6182</ele>
        <time>2019-04-27T07:25:57Z</time>
      </trkpt>
      <trkpt lat="43.74839" lon="7.14333">
        <ele>355.7252</ele>
        <time>2019-04-27T07:26:26Z</time>
      </trkpt>
      <trkpt lat="43.74844" lon="7.14332">
        <ele>357.3542</ele>
        <time>2019-04-27T07:26:36Z</time>
      </trkpt>
      <trkpt lat="43.74849" lon="7.14325">
        <ele>358.18417</ele>
        <time>2019-04-27T07:26:46Z</time>
      </trkpt>
      <trkpt lat="43.74847" lon="7.1432">
        <ele>358.96518</ele>
        <time>2019-04-27T07:26:52Z</time>
      </trkpt>
      <trkpt lat="43.74839" lon="7.14311">
        <ele>360.05817</ele>
        <time>2019-04-27T07:27:02Z</time>
      </trkpt>
      <trkpt lat="43.74833" lon="7.14305">
        <ele>360.6352</ele>
        <time>2019-04-27T07:27:12Z</time>
      </trkpt>
      <trkpt lat="43.74836" lon="7.14304">
        <ele>361.66617</ele>
        <time>2019-04-27T07:27:21Z</time>
      </trkpt>
      <trkpt lat="43.74841" lon="7.14298">
        <ele>362.40817</ele>
        <time>2019-04-27T07:27:27Z</time>
      </trkpt>
      <trkpt lat="43.74847" lon="7.14286">
        <ele>363.95517</ele>
        <time>2019-04-27T07:27:37Z</time>
      </trkpt>
      <trkpt lat="43.74853" lon="7.14273">
        <ele>365.64618</ele>
        <time>2019-04-27T07:27:47Z</time>
      </trkpt>
      <trkpt lat="43.74857" lon="7.14262">
        <ele>367.4192</ele>
        <time>2019-04-27T07:27:56Z</time>
      </trkpt>
      <trkpt lat="43.74858" lon="7.14256">
        <ele>368.48618</ele>
        <time>2019-04-27T07:28:01Z</time>
      </trkpt>
      <trkpt lat="43.74857" lon="7.14249">
        <ele>369.38617</ele>
        <time>2019-04-27T07:28:06Z</time>
      </trkpt>
      <trkpt lat="43.74858" lon="7.14243">
        <ele>370.55017</ele>
        <time>2019-04-27T07:28:12Z</time>
      </trkpt>
      <trkpt lat="43.74855" lon="7.14231">
        <ele>372.37817</ele>
        <time>2019-04-27T07:28:22Z</time>
      </trkpt>
      <trkpt lat="43.74855" lon="7.14223">
        <ele>373.87518</ele>
        <time>2019-04-27T07:28:32Z</time>
      </trkpt>
      <trkpt lat="43.74862" lon="7.14221">
        <ele>375.9842</ele>
        <time>2019-04-27T07:28:46Z</time>
      </trkpt>
      <trkpt lat="43.74868" lon="7.14223">
        <ele>377.6182</ele>
        <time>2019-04-27T07:28:56Z</time>
      </trkpt>
      <trkpt lat="43.74876" lon="7.14221">
        <ele>379.33218</ele>
        <time>2019-04-27T07:29:07Z</time>
      </trkpt>
      <trkpt lat="43.74883" lon="7.14218">
        <ele>381.38818</ele>
        <time>2019-04-27T07:29:17Z</time>
      </trkpt>
      <trkpt lat="43.74891" lon="7.1422">
        <ele>383.06717</ele>
        <time>2019-04-27T07:29:27Z</time>
      </trkpt>
      <trkpt lat="43.74897" lon="7.14219">
        <ele>384.9282</ele>
        <time>2019-04-27T07:29:36Z</time>
      </trkpt>
      <trkpt lat="43.74902" lon="7.14221">
        <ele>386.0792</ele>
        <time>2019-04-27T07:29:41Z</time>
      </trkpt>
      <trkpt lat="43.74908" lon="7.14223">
        <ele>387.0782</ele>
        <time>2019-04-27T07:29:46Z</time>
      </trkpt>
      <trkpt lat="43.74908" lon="7.14223">
        <ele>387.20718</ele>
        <time>2019-04-27T07:30:02Z</time>
      </trkpt>
      <trkpt lat="43.74908" lon="7.14223">
        <ele>387.20718</ele>
        <time>2019-04-27T07:30:22Z</time>
      </trkpt>
      <trkpt lat="43.74908" lon="7.14223">
        <ele>387.20718</ele>
        <time>2019-04-27T07:30:47Z</time>
      </trkpt>
      <trkpt lat="43.74908" lon="7.14223">
        <ele>387.20718</ele>
        <time>2019-04-27T07:31:01Z</time>
      </trkpt>
      <trkpt lat="43.74908" lon="7.14223">
        <ele>387.20718</ele>
        <time>2019-04-27T07:31:11Z</time>
      </trkpt>
      <trkpt lat="43.74908" lon="7.14223">
        <ele>387.20718</ele>
        <time>2019-04-27T07:31:21Z</time>
      </trkpt>
      <trkpt lat="43.74908" lon="7.14223">
        <ele>387.20718</ele>
        <time>2019-04-27T07:31:42Z</time>
      </trkpt>
      <trkpt lat="43.74908" lon="7.14223">
        <ele>387.20718</ele>
        <time>2019-04-27T07:31:46Z</time>
      </trkpt>
      <trkpt lat="43.74908" lon="7.14223">
        <ele>387.20718</ele>
        <time>2019-04-27T07:31:52Z</time>
      </trkpt>
      <trkpt lat="43.74908" lon="7.14223">
        <ele>387.20718</ele>
        <time>2019-04-27T07:32:06Z</time>
      </trkpt>
      <trkpt lat="43.74908" lon="7.14223">
        <ele>387.20718</ele>
        <time>2019-04-27T07:32:21Z</time>
      </trkpt>
      <trkpt lat="43.74908" lon="7.14223">
        <ele>387.20718</ele>
        <time>2019-04-27T07:32:27Z</time>
      </trkpt>
      <trkpt lat="43.74908" lon="7.14223">
        <ele>387.20718</ele>
        <time>2019-04-27T07:32:36Z</time>
      </trkpt>
      <trkpt lat="43.74958" lon="7.14157">
        <ele>413.19318</ele>
        <time>2019-04-27T07:33:47Z</time>
      </trkpt>
      <trkpt lat="43.74965" lon="7.14155">
        <ele>414.6432</ele>
        <time>2019-04-27T07:33:57Z</time>
      </trkpt>
      <trkpt lat="43.7497" lon="7.14153">
        <ele>415.30417</ele>
        <time>2019-04-27T07:34:01Z</time>
      </trkpt>
      <trkpt lat="43.74977" lon="7.1415">
        <ele>415.9272</ele>
        <time>2019-04-27T07:34:07Z</time>
      </trkpt>
      <trkpt lat="43.74987" lon="7.14149">
        <ele>417.1612</ele>
        <time>2019-04-27T07:34:46Z</time>
      </trkpt>
      <trkpt lat="43.74989" lon="7.14151">
        <ele>417.1652</ele>
        <time>2019-04-27T07:36:52Z</time>
      </trkpt>
      <trkpt lat="43.74989" lon="7.14141">
        <ele>418.4272</ele>
        <time>2019-04-27T07:38:36Z</time>
      </trkpt>
      <trkpt lat="43.75" lon="7.14137">
        <ele>420.6392</ele>
        <time>2019-04-27T07:38:52Z</time>
      </trkpt>
      <trkpt lat="43.75008" lon="7.14139">
        <ele>422.40317</ele>
        <time>2019-04-27T07:39:02Z</time>
      </trkpt>
      <trkpt lat="43.75012" lon="7.14138">
        <ele>423.60117</ele>
        <time>2019-04-27T07:39:07Z</time>
      </trkpt>
      <trkpt lat="43.75021" lon="7.1414">
        <ele>424.9712</ele>
        <time>2019-04-27T07:39:17Z</time>
      </trkpt>
      <trkpt lat="43.75026" lon="7.14139">
        <ele>425.81418</ele>
        <time>2019-04-27T07:39:22Z</time>
      </trkpt>
      <trkpt lat="43.75032" lon="7.1414">
        <ele>427.54318</ele>
        <time>2019-04-27T07:39:32Z</time>
      </trkpt>
      <trkpt lat="43.75041" lon="7.14145">
        <ele>428.92017</ele>
        <time>2019-04-27T07:39:42Z</time>
      </trkpt>
      <trkpt lat="43.75048" lon="7.14152">
        <ele>430.55817</ele>
        <time>2019-04-27T07:39:52Z</time>
      </trkpt>
      <trkpt lat="43.75057" lon="7.14152">
        <ele>431.88318</ele>
        <time>2019-04-27T07:40:02Z</time>
      </trkpt>
      <trkpt lat="43.75063" lon="7.14155">
        <ele>433.05618</ele>
        <time>2019-04-27T07:40:12Z</time>
      </trkpt>
      <trkpt lat="43.75078" lon="7.14157">
        <ele>436.03918</ele>
        <time>2019-04-27T07:40:32Z</time>
      </trkpt>
      <trkpt lat="43.75082" lon="7.1416">
        <ele>436.68317</ele>
        <time>2019-04-27T07:40:37Z</time>
      </trkpt>
      <trkpt lat="43.75092" lon="7.14166">
        <ele>438.26617</ele>
        <time>2019-04-27T07:40:47Z</time>
      </trkpt>
      <trkpt lat="43.75098" lon="7.14167">
        <ele>438.88217</ele>
        <time>2019-04-27T07:40:52Z</time>
      </trkpt>
      <trkpt lat="43.75103" lon="7.14169">
        <ele>439.68317</ele>
        <time>2019-04-27T07:40:57Z</time>
      </trkpt>
      <trkpt lat="43.75113" lon="7.14171">
        <ele>441.53317</ele>
        <time>2019-04-27T07:41:07Z</time>
      </trkpt>
      <trkpt lat="43.7513" lon="7.14179">
        <ele>444.49118</ele>
        <time>2019-04-27T07:41:41Z</time>
      </trkpt>
      <trkpt lat="43.75135" lon="7.14181">
        <ele>445.34018</ele>
        <time>2019-04-27T07:41:46Z</time>
      </trkpt>
      <trkpt lat="43.75137" lon="7.14183">
        <ele>445.6772</ele>
        <time>2019-04-27T07:42:01Z</time>
      </trkpt>
      <trkpt lat="43.75147" lon="7.14187">
        <ele>446.34018</ele>
        <time>2019-04-27T07:42:11Z</time>
      </trkpt>
      <trkpt lat="43.75154" lon="7.14192">
        <ele>446.90118</ele>
        <time>2019-04-27T07:42:21Z</time>
      </trkpt>
      <trkpt lat="43.75159" lon="7.14197">
        <ele>447.51718</ele>
        <time>2019-04-27T07:42:26Z</time>
      </trkpt>
      <trkpt lat="43.75167" lon="7.14201">
        <ele>448.2472</ele>
        <time>2019-04-27T07:42:36Z</time>
      </trkpt>
      <trkpt lat="43.75173" lon="7.14204">
        <ele>448.4582</ele>
        <time>2019-04-27T07:42:41Z</time>
      </trkpt>
      <trkpt lat="43.75185" lon="7.14209">
        <ele>450.62317</ele>
        <time>2019-04-27T07:42:56Z</time>
      </trkpt>
      <trkpt lat="43.75191" lon="7.14211">
        <ele>451.21518</ele>
        <time>2019-04-27T07:43:01Z</time>
      </trkpt>
      <trkpt lat="43.75201" lon="7.14218">
        <ele>451.74817</ele>
        <time>2019-04-27T07:43:11Z</time>
      </trkpt>
      <trkpt lat="43.75205" lon="7.14221">
        <ele>452.19217</ele>
        <time>2019-04-27T07:43:16Z</time>
      </trkpt>
      <trkpt lat="43.75209" lon="7.14225">
        <ele>452.39517</ele>
        <time>2019-04-27T07:43:21Z</time>
      </trkpt>
      <trkpt lat="43.75216" lon="7.1423">
        <ele>453.4062</ele>
        <time>2019-04-27T07:43:31Z</time>
      </trkpt>
      <trkpt lat="43.75221" lon="7.14233">
        <ele>454.1042</ele>
        <time>2019-04-27T07:43:36Z</time>
      </trkpt>
      <trkpt lat="43.75231" lon="7.14239">
        <ele>456.40817</ele>
        <time>2019-04-27T07:43:51Z</time>
      </trkpt>
      <trkpt lat="43.75237" lon="7.14241">
        <ele>457.64618</ele>
        <time>2019-04-27T07:44:01Z</time>
      </trkpt>
      <trkpt lat="43.75242" lon="7.14242">
        <ele>458.45517</ele>
        <time>2019-04-27T07:44:06Z</time>
      </trkpt>
      <trkpt lat="43.75248" lon="7.14244">
        <ele>459.64917</ele>
        <time>2019-04-27T07:44:16Z</time>
      </trkpt>
      <trkpt lat="43.75256" lon="7.14246">
        <ele>461.4752</ele>
        <time>2019-04-27T07:44:26Z</time>
      </trkpt>
      <trkpt lat="43.75261" lon="7.14245">
        <ele>461.9922</ele>
        <time>2019-04-27T07:44:31Z</time>
      </trkpt>
      <trkpt lat="43.75266" lon="7.14244">
        <ele>463.55417</ele>
        <time>2019-04-27T07:44:41Z</time>
      </trkpt>
      <trkpt lat="43.75273" lon="7.14245">
        <ele>464.73117</ele>
        <time>2019-04-27T07:44:51Z</time>
      </trkpt>
      <trkpt lat="43.75281" lon="7.14246">
        <ele>466.70618</ele>
        <time>2019-04-27T07:45:01Z</time>
      </trkpt>
      <trkpt lat="43.75288" lon="7.14246">
        <ele>467.4242</ele>
        <time>2019-04-27T07:45:06Z</time>
      </trkpt>
      <trkpt lat="43.75301" lon="7.1425">
        <ele>468.15018</ele>
        <time>2019-04-27T07:45:21Z</time>
      </trkpt>
      <trkpt lat="43.75306" lon="7.14252">
        <ele>468.6952</ele>
        <time>2019-04-27T07:45:26Z</time>
      </trkpt>
      <trkpt lat="43.75312" lon="7.14258">
        <ele>469.5742</ele>
        <time>2019-04-27T07:45:36Z</time>
      </trkpt>
      <trkpt lat="43.75319" lon="7.14265">
        <ele>470.44418</ele>
        <time>2019-04-27T07:45:46Z</time>
      </trkpt>
      <trkpt lat="43.75327" lon="7.14271">
        <ele>471.3842</ele>
        <time>2019-04-27T07:45:56Z</time>
      </trkpt>
      <trkpt lat="43.75333" lon="7.14273">
        <ele>471.9362</ele>
        <time>2019-04-27T07:46:02Z</time>
      </trkpt>
      <trkpt lat="43.75344" lon="7.14278">
        <ele>472.7292</ele>
        <time>2019-04-27T07:46:11Z</time>
      </trkpt>
      <trkpt lat="43.75351" lon="7.1428">
        <ele>475.16318</ele>
        <time>2019-04-27T07:46:25Z</time>
      </trkpt>
      <trkpt lat="43.75358" lon="7.14284">
        <ele>476.61118</ele>
        <time>2019-04-27T07:46:35Z</time>
      </trkpt>
      <trkpt lat="43.75368" lon="7.14286">
        <ele>477.97418</ele>
        <time>2019-04-27T07:46:46Z</time>
      </trkpt>
      <trkpt lat="43.75387" lon="7.14296">
        <ele>480.63617</ele>
        <time>2019-04-27T07:47:06Z</time>
      </trkpt>
      <trkpt lat="43.75392" lon="7.14298">
        <ele>482.76117</ele>
        <time>2019-04-27T07:47:16Z</time>
      </trkpt>
      <trkpt lat="43.75383" lon="7.1429">
        <ele>485.0622</ele>
        <time>2019-04-27T07:47:36Z</time>
      </trkpt>
      <trkpt lat="43.75375" lon="7.14286">
        <ele>486.58017</ele>
        <time>2019-04-27T07:47:46Z</time>
      </trkpt>
      <trkpt lat="43.7537" lon="7.14283">
        <ele>487.7732</ele>
        <time>2019-04-27T07:47:56Z</time>
      </trkpt>
      <trkpt lat="43.75365" lon="7.14278">
        <ele>489.0792</ele>
        <time>2019-04-27T07:48:05Z</time>
      </trkpt>
      <trkpt lat="43.75362" lon="7.14274">
        <ele>490.3372</ele>
        <time>2019-04-27T07:48:11Z</time>
      </trkpt>
      <trkpt lat="43.75359" lon="7.14268">
        <ele>491.0482</ele>
        <time>2019-04-27T07:48:16Z</time>
      </trkpt>
      <trkpt lat="43.75358" lon="7.14263">
        <ele>492.08917</ele>
        <time>2019-04-27T07:48:21Z</time>
      </trkpt>
      <trkpt lat="43.75362" lon="7.14261">
        <ele>492.74518</ele>
        <time>2019-04-27T07:48:26Z</time>
      </trkpt>
      <trkpt lat="43.75367" lon="7.14264">
        <ele>493.9062</ele>
        <time>2019-04-27T07:48:36Z</time>
      </trkpt>
      <trkpt lat="43.75373" lon="7.14265">
        <ele>495.5922</ele>
        <time>2019-04-27T07:48:46Z</time>
      </trkpt>
      <trkpt lat="43.75379" lon="7.14264">
        <ele>496.4922</ele>
        <time>2019-04-27T07:48:51Z</time>
      </trkpt>
      <trkpt lat="43.75383" lon="7.14263">
        <ele>497.0312</ele>
        <time>2019-04-27T07:48:56Z</time>
      </trkpt>
      <trkpt lat="43.75388" lon="7.14263">
        <ele>498.1042</ele>
        <time>2019-04-27T07:49:01Z</time>
      </trkpt>
      <trkpt lat="43.75398" lon="7.14263">
        <ele>500.0662</ele>
        <time>2019-04-27T07:49:17Z</time>
      </trkpt>
      <trkpt lat="43.75404" lon="7.14264">
        <ele>500.78217</ele>
        <time>2019-04-27T07:49:22Z</time>
      </trkpt>
      <trkpt lat="43.75407" lon="7.14266">
        <ele>502.1352</ele>
        <time>2019-04-27T07:49:32Z</time>
      </trkpt>
      <trkpt lat="43.75411" lon="7.14269">
        <ele>502.59418</ele>
        <time>2019-04-27T07:49:37Z</time>
      </trkpt>
      <trkpt lat="43.7542" lon="7.14275">
        <ele>503.67117</ele>
        <time>2019-04-27T07:49:46Z</time>
      </trkpt>
      <trkpt lat="43.75427" lon="7.14285">
        <ele>504.53918</ele>
        <time>2019-04-27T07:49:56Z</time>
      </trkpt>
      <trkpt lat="43.75435" lon="7.14289">
        <ele>505.90317</ele>
        <time>2019-04-27T07:50:06Z</time>
      </trkpt>
      <trkpt lat="43.7544" lon="7.1429">
        <ele>506.49118</ele>
        <time>2019-04-27T07:50:11Z</time>
      </trkpt>
      <trkpt lat="43.75449" lon="7.14298">
        <ele>507.79218</ele>
        <time>2019-04-27T07:50:26Z</time>
      </trkpt>
      <trkpt lat="43.75457" lon="7.14303">
        <ele>508.60117</ele>
        <time>2019-04-27T07:50:36Z</time>
      </trkpt>
      <trkpt lat="43.75461" lon="7.14306">
        <ele>509.03018</ele>
        <time>2019-04-27T07:50:41Z</time>
      </trkpt>
      <trkpt lat="43.75465" lon="7.14309">
        <ele>509.57318</ele>
        <time>2019-04-27T07:50:46Z</time>
      </trkpt>
      <trkpt lat="43.75472" lon="7.14312">
        <ele>511.0062</ele>
        <time>2019-04-27T07:50:56Z</time>
      </trkpt>
      <trkpt lat="43.75478" lon="7.14311">
        <ele>511.54517</ele>
        <time>2019-04-27T07:51:01Z</time>
      </trkpt>
      <trkpt lat="43.75484" lon="7.14312">
        <ele>511.90817</ele>
        <time>2019-04-27T07:51:06Z</time>
      </trkpt>
      <trkpt lat="43.75488" lon="7.14315">
        <ele>512.7232</ele>
        <time>2019-04-27T07:51:11Z</time>
      </trkpt>
      <trkpt lat="43.75494" lon="7.14318">
        <ele>513.91516</ele>
        <time>2019-04-27T07:51:21Z</time>
      </trkpt>
      <trkpt lat="43.75503" lon="7.14321">
        <ele>515.3672</ele>
        <time>2019-04-27T07:51:32Z</time>
      </trkpt>
      <trkpt lat="43.75511" lon="7.14324">
        <ele>516.63617</ele>
        <time>2019-04-27T07:51:41Z</time>
      </trkpt>
      <trkpt lat="43.75515" lon="7.14327">
        <ele>517.4812</ele>
        <time>2019-04-27T07:51:51Z</time>
      </trkpt>
      <trkpt lat="43.75533" lon="7.14329">
        <ele>520.2272</ele>
        <time>2019-04-27T07:52:11Z</time>
      </trkpt>
      <trkpt lat="43.75537" lon="7.14327">
        <ele>521.5912</ele>
        <time>2019-04-27T07:52:16Z</time>
      </trkpt>
      <trkpt lat="43.75541" lon="7.14324">
        <ele>522.6032</ele>
        <time>2019-04-27T07:52:21Z</time>
      </trkpt>
      <trkpt lat="43.75549" lon="7.14321">
        <ele>523.85815</ele>
        <time>2019-04-27T07:52:31Z</time>
      </trkpt>
      <trkpt lat="43.75554" lon="7.14321">
        <ele>524.74115</ele>
        <time>2019-04-27T07:52:36Z</time>
      </trkpt>
      <trkpt lat="43.75561" lon="7.14322">
        <ele>525.7662</ele>
        <time>2019-04-27T07:52:46Z</time>
      </trkpt>
      <trkpt lat="43.75565" lon="7.14322">
        <ele>526.2112</ele>
        <time>2019-04-27T07:52:51Z</time>
      </trkpt>
      <trkpt lat="43.75572" lon="7.14324">
        <ele>526.1272</ele>
        <time>2019-04-27T07:52:56Z</time>
      </trkpt>
      <trkpt lat="43.75574" lon="7.14328">
        <ele>526.78516</ele>
        <time>2019-04-27T07:53:06Z</time>
      </trkpt>
      <trkpt lat="43.75574" lon="7.14332">
        <ele>527.4222</ele>
        <time>2019-04-27T07:56:41Z</time>
      </trkpt>
      <trkpt lat="43.75583" lon="7.14331">
        <ele>528.72015</ele>
        <time>2019-04-27T07:56:51Z</time>
      </trkpt>
      <trkpt lat="43.75591" lon="7.14331">
        <ele>529.8512</ele>
        <time>2019-04-27T07:57:00Z</time>
      </trkpt>
      <trkpt lat="43.75598" lon="7.1433">
        <ele>530.4422</ele>
        <time>2019-04-27T07:57:06Z</time>
      </trkpt>
      <trkpt lat="43.75605" lon="7.14329">
        <ele>532.0812</ele>
        <time>2019-04-27T07:57:16Z</time>
      </trkpt>
      <trkpt lat="43.75613" lon="7.14326">
        <ele>533.9242</ele>
        <time>2019-04-27T07:57:26Z</time>
      </trkpt>
      <trkpt lat="43.75618" lon="7.14325">
        <ele>535.4002</ele>
        <time>2019-04-27T07:57:36Z</time>
      </trkpt>
      <trkpt lat="43.75623" lon="7.14322">
        <ele>536.9522</ele>
        <time>2019-04-27T07:57:45Z</time>
      </trkpt>
      <trkpt lat="43.7563" lon="7.14319">
        <ele>538.10516</ele>
        <time>2019-04-27T07:57:56Z</time>
      </trkpt>
      <trkpt lat="43.75634" lon="7.14316">
        <ele>538.9342</ele>
        <time>2019-04-27T07:58:01Z</time>
      </trkpt>
      <trkpt lat="43.7564" lon="7.14313">
        <ele>540.26416</ele>
        <time>2019-04-27T07:58:11Z</time>
      </trkpt>
      <trkpt lat="43.75649" lon="7.14313">
        <ele>541.7192</ele>
        <time>2019-04-27T07:58:21Z</time>
      </trkpt>
      <trkpt lat="43.75656" lon="7.14311">
        <ele>543.1202</ele>
        <time>2019-04-27T07:58:32Z</time>
      </trkpt>
      <trkpt lat="43.75665" lon="7.14311">
        <ele>545.7882</ele>
        <time>2019-04-27T07:58:52Z</time>
      </trkpt>
      <trkpt lat="43.75673" lon="7.14311">
        <ele>547.13916</ele>
        <time>2019-04-27T07:59:02Z</time>
      </trkpt>
      <trkpt lat="43.75679" lon="7.14312">
        <ele>548.5602</ele>
        <time>2019-04-27T07:59:12Z</time>
      </trkpt>
      <trkpt lat="43.75699" lon="7.14313">
        <ele>551.4212</ele>
        <time>2019-04-27T07:59:36Z</time>
      </trkpt>
      <trkpt lat="43.75703" lon="7.14315">
        <ele>552.21216</ele>
        <time>2019-04-27T07:59:41Z</time>
      </trkpt>
      <trkpt lat="43.75711" lon="7.14317">
        <ele>553.12115</ele>
        <time>2019-04-27T07:59:51Z</time>
      </trkpt>
      <trkpt lat="43.75726" lon="7.14319">
        <ele>554.3052</ele>
        <time>2019-04-27T08:00:06Z</time>
      </trkpt>
      <trkpt lat="43.75734" lon="7.14322">
        <ele>554.7942</ele>
        <time>2019-04-27T08:00:11Z</time>
      </trkpt>
      <trkpt lat="43.7574" lon="7.14323">
        <ele>555.61816</ele>
        <time>2019-04-27T08:00:27Z</time>
      </trkpt>
      <trkpt lat="43.75745" lon="7.14325">
        <ele>555.4602</ele>
        <time>2019-04-27T08:00:32Z</time>
      </trkpt>
      <trkpt lat="43.75749" lon="7.14328">
        <ele>555.7712</ele>
        <time>2019-04-27T08:00:37Z</time>
      </trkpt>
      <trkpt lat="43.75758" lon="7.14331">
        <ele>556.0102</ele>
        <time>2019-04-27T08:00:47Z</time>
      </trkpt>
      <trkpt lat="43.75763" lon="7.1433">
        <ele>556.4452</ele>
        <time>2019-04-27T08:00:52Z</time>
      </trkpt>
      <trkpt lat="43.75771" lon="7.14332">
        <ele>557.1122</ele>
        <time>2019-04-27T08:01:02Z</time>
      </trkpt>
      <trkpt lat="43.75775" lon="7.14332">
        <ele>557.36017</ele>
        <time>2019-04-27T08:01:07Z</time>
      </trkpt>
      <trkpt lat="43.75781" lon="7.1433">
        <ele>557.83417</ele>
        <time>2019-04-27T08:01:12Z</time>
      </trkpt>
      <trkpt lat="43.7579" lon="7.14329">
        <ele>557.8232</ele>
        <time>2019-04-27T08:01:22Z</time>
      </trkpt>
      <trkpt lat="43.75797" lon="7.14328">
        <ele>558.5132</ele>
        <time>2019-04-27T08:01:27Z</time>
      </trkpt>
      <trkpt lat="43.758" lon="7.14323">
        <ele>559.3022</ele>
        <time>2019-04-27T08:01:32Z</time>
      </trkpt>
      <trkpt lat="43.75805" lon="7.1432">
        <ele>559.8542</ele>
        <time>2019-04-27T08:01:37Z</time>
      </trkpt>
      <trkpt lat="43.7581" lon="7.14316">
        <ele>559.5722</ele>
        <time>2019-04-27T08:01:42Z</time>
      </trkpt>
      <trkpt lat="43.75816" lon="7.14311">
        <ele>559.6042</ele>
        <time>2019-04-27T08:01:51Z</time>
      </trkpt>
      <trkpt lat="43.75824" lon="7.14309">
        <ele>559.8262</ele>
        <time>2019-04-27T08:01:57Z</time>
      </trkpt>
      <trkpt lat="43.75828" lon="7.14305">
        <ele>560.32416</ele>
        <time>2019-04-27T08:02:02Z</time>
      </trkpt>
      <trkpt lat="43.75836" lon="7.14304">
        <ele>561.0542</ele>
        <time>2019-04-27T08:02:07Z</time>
      </trkpt>
      <trkpt lat="43.75841" lon="7.14302">
        <ele>561.64417</ele>
        <time>2019-04-27T08:02:12Z</time>
      </trkpt>
      <trkpt lat="43.75847" lon="7.14301">
        <ele>561.6012</ele>
        <time>2019-04-27T08:02:17Z</time>
      </trkpt>
      <trkpt lat="43.75853" lon="7.143">
        <ele>562.2012</ele>
        <time>2019-04-27T08:02:27Z</time>
      </trkpt>
      <trkpt lat="43.75861" lon="7.143">
        <ele>562.7032</ele>
        <time>2019-04-27T08:02:32Z</time>
      </trkpt>
      <trkpt lat="43.75865" lon="7.14298">
        <ele>563.5342</ele>
        <time>2019-04-27T08:02:37Z</time>
      </trkpt>
      <trkpt lat="43.7587" lon="7.14296">
        <ele>564.1772</ele>
        <time>2019-04-27T08:02:42Z</time>
      </trkpt>
      <trkpt lat="43.75877" lon="7.14295">
        <ele>564.2052</ele>
        <time>2019-04-27T08:02:47Z</time>
      </trkpt>
      <trkpt lat="43.75885" lon="7.14296">
        <ele>564.09515</ele>
        <time>2019-04-27T08:02:57Z</time>
      </trkpt>
      <trkpt lat="43.75889" lon="7.14297">
        <ele>563.6372</ele>
        <time>2019-04-27T08:03:02Z</time>
      </trkpt>
      <trkpt lat="43.75894" lon="7.143">
        <ele>562.96716</ele>
        <time>2019-04-27T08:03:07Z</time>
      </trkpt>
      <trkpt lat="43.75898" lon="7.14304">
        <ele>563.4612</ele>
        <time>2019-04-27T08:03:12Z</time>
      </trkpt>
      <trkpt lat="43.75903" lon="7.14302">
        <ele>564.0262</ele>
        <time>2019-04-27T08:03:17Z</time>
      </trkpt>
      <trkpt lat="43.75909" lon="7.143">
        <ele>564.6672</ele>
        <time>2019-04-27T08:03:22Z</time>
      </trkpt>
      <trkpt lat="43.75915" lon="7.143">
        <ele>565.2102</ele>
        <time>2019-04-27T08:03:27Z</time>
      </trkpt>
      <trkpt lat="43.75919" lon="7.14302">
        <ele>565.5022</ele>
        <time>2019-04-27T08:03:32Z</time>
      </trkpt>
      <trkpt lat="43.75926" lon="7.14308">
        <ele>566.04315</ele>
        <time>2019-04-27T08:03:46Z</time>
      </trkpt>
      <trkpt lat="43.75926" lon="7.14316">
        <ele>567.6902</ele>
        <time>2019-04-27T08:03:56Z</time>
      </trkpt>
      <trkpt lat="43.7593" lon="7.1432">
        <ele>569.51416</ele>
        <time>2019-04-27T08:04:07Z</time>
      </trkpt>
      <trkpt lat="43.75934" lon="7.14323">
        <ele>570.2052</ele>
        <time>2019-04-27T08:04:12Z</time>
      </trkpt>
      <trkpt lat="43.75936" lon="7.14328">
        <ele>571.87915</ele>
        <time>2019-04-27T08:04:22Z</time>
      </trkpt>
      <trkpt lat="43.75932" lon="7.14335">
        <ele>572.6122</ele>
        <time>2019-04-27T08:04:27Z</time>
      </trkpt>
      <trkpt lat="43.75927" lon="7.14339">
        <ele>573.3482</ele>
        <time>2019-04-27T08:04:32Z</time>
      </trkpt>
      <trkpt lat="43.75923" lon="7.14343">
        <ele>573.9892</ele>
        <time>2019-04-27T08:04:37Z</time>
      </trkpt>
      <trkpt lat="43.75919" lon="7.14348">
        <ele>574.6282</ele>
        <time>2019-04-27T08:04:42Z</time>
      </trkpt>
      <trkpt lat="43.75915" lon="7.14355">
        <ele>576.3522</ele>
        <time>2019-04-27T08:04:52Z</time>
      </trkpt>
      <trkpt lat="43.75912" lon="7.14362">
        <ele>577.1822</ele>
        <time>2019-04-27T08:04:57Z</time>
      </trkpt>
      <trkpt lat="43.75906" lon="7.14374">
        <ele>580.5392</ele>
        <time>2019-04-27T08:05:17Z</time>
      </trkpt>
      <trkpt lat="43.75903" lon="7.1438">
        <ele>581.6092</ele>
        <time>2019-04-27T08:05:22Z</time>
      </trkpt>
      <trkpt lat="43.75899" lon="7.14387">
        <ele>582.90515</ele>
        <time>2019-04-27T08:05:32Z</time>
      </trkpt>
      <trkpt lat="43.75895" lon="7.14395">
        <ele>584.1222</ele>
        <time>2019-04-27T08:05:42Z</time>
      </trkpt>
      <trkpt lat="43.7589" lon="7.14408">
        <ele>586.6542</ele>
        <time>2019-04-27T08:05:55Z</time>
      </trkpt>
      <trkpt lat="43.75889" lon="7.14414">
        <ele>589.8392</ele>
        <time>2019-04-27T08:06:11Z</time>
      </trkpt>
      <trkpt lat="43.75896" lon="7.1442">
        <ele>595.1462</ele>
        <time>2019-04-27T08:06:37Z</time>
      </trkpt>
      <trkpt lat="43.75906" lon="7.14426">
        <ele>600.61615</ele>
        <time>2019-04-27T08:07:06Z</time>
      </trkpt>
      <trkpt lat="43.75916" lon="7.14431">
        <ele>603.2922</ele>
        <time>2019-04-27T08:07:22Z</time>
      </trkpt>
      <trkpt lat="43.75925" lon="7.14436">
        <ele>604.79315</ele>
        <time>2019-04-27T08:07:32Z</time>
      </trkpt>
      <trkpt lat="43.75938" lon="7.14442">
        <ele>609.8702</ele>
        <time>2019-04-27T08:07:57Z</time>
      </trkpt>
      <trkpt lat="43.75938" lon="7.14446">
        <ele>612.53516</ele>
        <time>2019-04-27T08:08:12Z</time>
      </trkpt>
      <trkpt lat="43.75932" lon="7.14453">
        <ele>613.3182</ele>
        <time>2019-04-27T08:08:17Z</time>
      </trkpt>
      <trkpt lat="43.7593" lon="7.14478">
        <ele>618.4422</ele>
        <time>2019-04-27T08:11:26Z</time>
      </trkpt>
      <trkpt lat="43.75927" lon="7.14483">
        <ele>619.2312</ele>
        <time>2019-04-27T08:11:31Z</time>
      </trkpt>
      <trkpt lat="43.75925" lon="7.14486">
        <ele>621.8022</ele>
        <time>2019-04-27T08:11:46Z</time>
      </trkpt>
      <trkpt lat="43.75924" lon="7.14496">
        <ele>624.6512</ele>
        <time>2019-04-27T08:12:01Z</time>
      </trkpt>
      <trkpt lat="43.75922" lon="7.145">
        <ele>625.4522</ele>
        <time>2019-04-27T08:12:06Z</time>
      </trkpt>
      <trkpt lat="43.75919" lon="7.1451">
        <ele>628.0672</ele>
        <time>2019-04-27T08:12:15Z</time>
      </trkpt>
      <trkpt lat="43.75927" lon="7.1451">
        <ele>632.37115</ele>
        <time>2019-04-27T08:12:36Z</time>
      </trkpt>
      <trkpt lat="43.75933" lon="7.14514">
        <ele>635.0882</ele>
        <time>2019-04-27T08:12:50Z</time>
      </trkpt>
      <trkpt lat="43.75938" lon="7.14512">
        <ele>635.95715</ele>
        <time>2019-04-27T08:12:56Z</time>
      </trkpt>
      <trkpt lat="43.75945" lon="7.14508">
        <ele>637.9302</ele>
        <time>2019-04-27T08:13:06Z</time>
      </trkpt>
      <trkpt lat="43.75956" lon="7.1451">
        <ele>641.51416</ele>
        <time>2019-04-27T08:13:25Z</time>
      </trkpt>
      <trkpt lat="43.75961" lon="7.14512">
        <ele>642.1512</ele>
        <time>2019-04-27T08:13:31Z</time>
      </trkpt>
      <trkpt lat="43.75958" lon="7.14525">
        <ele>647.1322</ele>
        <time>2019-04-27T08:13:55Z</time>
      </trkpt>
      <trkpt lat="43.75952" lon="7.14536">
        <ele>648.19415</ele>
        <time>2019-04-27T08:14:00Z</time>
      </trkpt>
      <trkpt lat="43.75961" lon="7.14546">
        <ele>651.7712</ele>
        <time>2019-04-27T08:14:20Z</time>
      </trkpt>
      <trkpt lat="43.75966" lon="7.1456">
        <ele>659.9552</ele>
        <time>2019-04-27T08:16:17Z</time>
      </trkpt>
      <trkpt lat="43.75975" lon="7.14568">
        <ele>663.2272</ele>
        <time>2019-04-27T08:16:47Z</time>
      </trkpt>
      <trkpt lat="43.75985" lon="7.14571">
        <ele>664.22015</ele>
        <time>2019-04-27T08:16:52Z</time>
      </trkpt>
      <trkpt lat="43.75991" lon="7.14577">
        <ele>665.9422</ele>
        <time>2019-04-27T08:17:02Z</time>
      </trkpt>
      <trkpt lat="43.75996" lon="7.14578">
        <ele>667.65216</ele>
        <time>2019-04-27T08:17:12Z</time>
      </trkpt>
      <trkpt lat="43.76017" lon="7.14588">
        <ele>670.9432</ele>
        <time>2019-04-27T08:17:32Z</time>
      </trkpt>
      <trkpt lat="43.7603" lon="7.14605">
        <ele>675.88916</ele>
        <time>2019-04-27T08:18:06Z</time>
      </trkpt>
      <trkpt lat="43.76038" lon="7.14611">
        <ele>677.4512</ele>
        <time>2019-04-27T08:18:16Z</time>
      </trkpt>
      <trkpt lat="43.7605" lon="7.14635">
        <ele>680.1012</ele>
        <time>2019-04-27T08:18:37Z</time>
      </trkpt>
      <trkpt lat="43.76058" lon="7.14651">
        <ele>681.0052</ele>
        <time>2019-04-27T08:18:42Z</time>
      </trkpt>
      <trkpt lat="43.76054" lon="7.14653">
        <ele>686.5992</ele>
        <time>2019-04-27T08:19:11Z</time>
      </trkpt>
      <trkpt lat="43.76048" lon="7.14667">
        <ele>687.46216</ele>
        <time>2019-04-27T08:19:16Z</time>
      </trkpt>
      <trkpt lat="43.76044" lon="7.14668">
        <ele>688.03217</ele>
        <time>2019-04-27T08:19:21Z</time>
      </trkpt>
      <trkpt lat="43.7604" lon="7.14664">
        <ele>688.7632</ele>
        <time>2019-04-27T08:19:26Z</time>
      </trkpt>
      <trkpt lat="43.76043" lon="7.1467">
        <ele>689.90515</ele>
        <time>2019-04-27T08:19:31Z</time>
      </trkpt>
      <trkpt lat="43.76051" lon="7.14691">
        <ele>690.4792</ele>
        <time>2019-04-27T08:19:36Z</time>
      </trkpt>
      <trkpt lat="43.76054" lon="7.14701">
        <ele>691.6042</ele>
        <time>2019-04-27T08:19:41Z</time>
      </trkpt>
      <trkpt lat="43.76056" lon="7.14699">
        <ele>692.7342</ele>
        <time>2019-04-27T08:19:46Z</time>
      </trkpt>
      <trkpt lat="43.76057" lon="7.14692">
        <ele>693.6712</ele>
        <time>2019-04-27T08:19:51Z</time>
      </trkpt>
      <trkpt lat="43.76059" lon="7.14696">
        <ele>694.1952</ele>
        <time>2019-04-27T08:19:56Z</time>
      </trkpt>
      <trkpt lat="43.76066" lon="7.14706">
        <ele>694.94116</ele>
        <time>2019-04-27T08:20:01Z</time>
      </trkpt>
      <trkpt lat="43.76067" lon="7.147">
        <ele>695.8652</ele>
        <time>2019-04-27T08:20:06Z</time>
      </trkpt>
      <trkpt lat="43.76065" lon="7.14707">
        <ele>697.03015</ele>
        <time>2019-04-27T08:20:11Z</time>
      </trkpt>
      <trkpt lat="43.76064" lon="7.14711">
        <ele>697.5412</ele>
        <time>2019-04-27T08:20:16Z</time>
      </trkpt>
      <trkpt lat="43.76068" lon="7.1471">
        <ele>698.8642</ele>
        <time>2019-04-27T08:20:26Z</time>
      </trkpt>
      <trkpt lat="43.76069" lon="7.14689">
        <ele>703.6982</ele>
        <time>2019-04-27T08:20:52Z</time>
      </trkpt>
      <trkpt lat="43.76065" lon="7.14676">
        <ele>704.3542</ele>
        <time>2019-04-27T08:20:57Z</time>
      </trkpt>
      <trkpt lat="43.76066" lon="7.14667">
        <ele>705.75415</ele>
        <time>2019-04-27T08:21:07Z</time>
      </trkpt>
      <trkpt lat="43.76068" lon="7.14665">
        <ele>706.79517</ele>
        <time>2019-04-27T08:21:12Z</time>
      </trkpt>
      <trkpt lat="43.76065" lon="7.14667">
        <ele>707.7782</ele>
        <time>2019-04-27T08:21:17Z</time>
      </trkpt>
      <trkpt lat="43.76064" lon="7.14666">
        <ele>708.5152</ele>
        <time>2019-04-27T08:21:22Z</time>
      </trkpt>
      <trkpt lat="43.76064" lon="7.14669">
        <ele>709.61615</ele>
        <time>2019-04-27T08:21:27Z</time>
      </trkpt>
      <trkpt lat="43.76057" lon="7.1467">
        <ele>710.42316</ele>
        <time>2019-04-27T08:21:32Z</time>
      </trkpt>
      <trkpt lat="43.76048" lon="7.14669">
        <ele>711.1892</ele>
        <time>2019-04-27T08:21:37Z</time>
      </trkpt>
      <trkpt lat="43.76044" lon="7.14661">
        <ele>712.08417</ele>
        <time>2019-04-27T08:21:42Z</time>
      </trkpt>
      <trkpt lat="43.7604" lon="7.14659">
        <ele>713.83716</ele>
        <time>2019-04-27T08:21:52Z</time>
      </trkpt>
      <trkpt lat="43.76036" lon="7.14662">
        <ele>715.1882</ele>
        <time>2019-04-27T08:21:57Z</time>
      </trkpt>
      <trkpt lat="43.76032" lon="7.14684">
        <ele>715.7032</ele>
        <time>2019-04-27T08:22:02Z</time>
      </trkpt>
      <trkpt lat="43.76036" lon="7.14695">
        <ele>718.4732</ele>
        <time>2019-04-27T08:22:30Z</time>
      </trkpt>
      <trkpt lat="43.76053" lon="7.14689">
        <ele>719.0642</ele>
        <time>2019-04-27T08:22:40Z</time>
      </trkpt>
      <trkpt lat="43.76051" lon="7.147">
        <ele>721.9272</ele>
        <time>2019-04-27T08:23:01Z</time>
      </trkpt>
      <trkpt lat="43.76046" lon="7.14695">
        <ele>722.6792</ele>
        <time>2019-04-27T08:23:05Z</time>
      </trkpt>
      <trkpt lat="43.76047" lon="7.14705">
        <ele>723.47015</ele>
        <time>2019-04-27T08:23:11Z</time>
      </trkpt>
      <trkpt lat="43.76047" lon="7.1473">
        <ele>725.0132</ele>
        <time>2019-04-27T08:23:21Z</time>
      </trkpt>
      <trkpt lat="43.76037" lon="7.14731">
        <ele>726.70917</ele>
        <time>2019-04-27T08:23:31Z</time>
      </trkpt>
      <trkpt lat="43.76041" lon="7.1474">
        <ele>727.69617</ele>
        <time>2019-04-27T08:23:36Z</time>
      </trkpt>
      <trkpt lat="43.7604" lon="7.14755">
        <ele>728.1822</ele>
        <time>2019-04-27T08:23:40Z</time>
      </trkpt>
      <trkpt lat="43.76035" lon="7.14754">
        <ele>729.0722</ele>
        <time>2019-04-27T08:23:46Z</time>
      </trkpt>
      <trkpt lat="43.7603" lon="7.14763">
        <ele>730.01117</ele>
        <time>2019-04-27T08:23:50Z</time>
      </trkpt>
      <trkpt lat="43.76005" lon="7.14794">
        <ele>733.6752</ele>
        <time>2019-04-27T08:24:17Z</time>
      </trkpt>
      <trkpt lat="43.75994" lon="7.14783">
        <ele>734.4582</ele>
        <time>2019-04-27T08:24:22Z</time>
      </trkpt>
      <trkpt lat="43.7599" lon="7.14774">
        <ele>735.1302</ele>
        <time>2019-04-27T08:24:27Z</time>
      </trkpt>
      <trkpt lat="43.75993" lon="7.14796">
        <ele>736.6192</ele>
        <time>2019-04-27T08:24:41Z</time>
      </trkpt>
      <trkpt lat="43.75971" lon="7.14799">
        <ele>737.0602</ele>
        <time>2019-04-27T08:24:46Z</time>
      </trkpt>
      <trkpt lat="43.75963" lon="7.14807">
        <ele>737.28217</ele>
        <time>2019-04-27T08:24:51Z</time>
      </trkpt>
      <trkpt lat="43.75954" lon="7.14809">
        <ele>737.40717</ele>
        <time>2019-04-27T08:24:56Z</time>
      </trkpt>
      <trkpt lat="43.7595" lon="7.14811">
        <ele>737.76715</ele>
        <time>2019-04-27T08:25:01Z</time>
      </trkpt>
      <trkpt lat="43.75945" lon="7.14811">
        <ele>738.11615</ele>
        <time>2019-04-27T08:25:06Z</time>
      </trkpt>
      <trkpt lat="43.75937" lon="7.14808">
        <ele>738.11615</ele>
        <time>2019-04-27T08:25:16Z</time>
      </trkpt>
      <trkpt lat="43.7593" lon="7.14805">
        <ele>739.2392</ele>
        <time>2019-04-27T08:25:21Z</time>
      </trkpt>
      <trkpt lat="43.75879" lon="7.148">
        <ele>737.5362</ele>
        <time>2019-04-27T08:27:12Z</time>
      </trkpt>
      <trkpt lat="43.75885" lon="7.14803">
        <ele>738.80316</ele>
        <time>2019-04-27T08:27:22Z</time>
      </trkpt>
      <trkpt lat="43.7588" lon="7.14797">
        <ele>738.3702</ele>
        <time>2019-04-27T08:27:31Z</time>
      </trkpt>
      <trkpt lat="43.75877" lon="7.14794">
        <ele>738.3752</ele>
        <time>2019-04-27T08:27:37Z</time>
      </trkpt>
      <trkpt lat="43.75901" lon="7.14823">
        <ele>738.4382</ele>
        <time>2019-04-27T08:27:42Z</time>
      </trkpt>
      <trkpt lat="43.75902" lon="7.1481">
        <ele>737.4222</ele>
        <time>2019-04-27T08:32:06Z</time>
      </trkpt>
      <trkpt lat="43.75886" lon="7.14834">
        <ele>738.5332</ele>
        <time>2019-04-27T08:32:11Z</time>
      </trkpt>
      <trkpt lat="43.75883" lon="7.1484">
        <ele>737.0782</ele>
        <time>2019-04-27T08:32:16Z</time>
      </trkpt>
      <trkpt lat="43.75877" lon="7.14847">
        <ele>737.6592</ele>
        <time>2019-04-27T08:32:21Z</time>
      </trkpt>
      <trkpt lat="43.75874" lon="7.14855">
        <ele>736.73315</ele>
        <time>2019-04-27T08:32:31Z</time>
      </trkpt>
      <trkpt lat="43.75867" lon="7.14864">
        <ele>736.67017</ele>
        <time>2019-04-27T08:32:41Z</time>
      </trkpt>
      <trkpt lat="43.7586" lon="7.14867">
        <ele>736.7492</ele>
        <time>2019-04-27T08:32:46Z</time>
      </trkpt>
      <trkpt lat="43.75851" lon="7.14875">
        <ele>736.3872</ele>
        <time>2019-04-27T08:32:56Z</time>
      </trkpt>
      <trkpt lat="43.75848" lon="7.1488">
        <ele>735.79016</ele>
        <time>2019-04-27T08:33:01Z</time>
      </trkpt>
      <trkpt lat="43.75844" lon="7.14887">
        <ele>735.1532</ele>
        <time>2019-04-27T08:33:06Z</time>
      </trkpt>
      <trkpt lat="43.75839" lon="7.1489">
        <ele>735.0372</ele>
        <time>2019-04-27T08:33:11Z</time>
      </trkpt>
      <trkpt lat="43.75832" lon="7.14893">
        <ele>733.9602</ele>
        <time>2019-04-27T08:33:21Z</time>
      </trkpt>
      <trkpt lat="43.75823" lon="7.14896">
        <ele>733.2152</ele>
        <time>2019-04-27T08:33:31Z</time>
      </trkpt>
      <trkpt lat="43.75813" lon="7.149">
        <ele>731.6112</ele>
        <time>2019-04-27T08:33:42Z</time>
      </trkpt>
      <trkpt lat="43.75803" lon="7.14902">
        <ele>731.35516</ele>
        <time>2019-04-27T08:33:52Z</time>
      </trkpt>
      <trkpt lat="43.75799" lon="7.14902">
        <ele>730.5282</ele>
        <time>2019-04-27T08:33:57Z</time>
      </trkpt>
      <trkpt lat="43.75792" lon="7.14896">
        <ele>729.1892</ele>
        <time>2019-04-27T08:34:06Z</time>
      </trkpt>
      <trkpt lat="43.75782" lon="7.14893">
        <ele>728.38416</ele>
        <time>2019-04-27T08:34:17Z</time>
      </trkpt>
      <trkpt lat="43.75773" lon="7.14896">
        <ele>727.1322</ele>
        <time>2019-04-27T08:34:27Z</time>
      </trkpt>
      <trkpt lat="43.75765" lon="7.14891">
        <ele>724.6452</ele>
        <time>2019-04-27T08:34:42Z</time>
      </trkpt>
      <trkpt lat="43.75757" lon="7.14893">
        <ele>724.42816</ele>
        <time>2019-04-27T08:34:52Z</time>
      </trkpt>
      <trkpt lat="43.75747" lon="7.14888">
        <ele>723.9322</ele>
        <time>2019-04-27T08:35:02Z</time>
      </trkpt>
      <trkpt lat="43.75739" lon="7.14884">
        <ele>721.9382</ele>
        <time>2019-04-27T08:35:12Z</time>
      </trkpt>
      <trkpt lat="43.75734" lon="7.14869">
        <ele>718.71216</ele>
        <time>2019-04-27T08:36:32Z</time>
      </trkpt>
      <trkpt lat="43.75731" lon="7.14861">
        <ele>717.5332</ele>
        <time>2019-04-27T08:36:42Z</time>
      </trkpt>
      <trkpt lat="43.75739" lon="7.14874">
        <ele>721.0382</ele>
        <time>2019-04-27T08:38:32Z</time>
      </trkpt>
      <trkpt lat="43.75738" lon="7.14881">
        <ele>721.5262</ele>
        <time>2019-04-27T08:38:51Z</time>
      </trkpt>
      <trkpt lat="43.75742" lon="7.14888">
        <ele>722.8522</ele>
        <time>2019-04-27T08:39:07Z</time>
      </trkpt>
      <trkpt lat="43.75753" lon="7.14893">
        <ele>724.16516</ele>
        <time>2019-04-27T08:39:17Z</time>
      </trkpt>
      <trkpt lat="43.75758" lon="7.14894">
        <ele>724.7102</ele>
        <time>2019-04-27T08:39:27Z</time>
      </trkpt>
      <trkpt lat="43.75764" lon="7.14893">
        <ele>725.4382</ele>
        <time>2019-04-27T08:39:32Z</time>
      </trkpt>
      <trkpt lat="43.75772" lon="7.14895">
        <ele>726.0912</ele>
        <time>2019-04-27T08:39:42Z</time>
      </trkpt>
      <trkpt lat="43.75776" lon="7.14897">
        <ele>727.58417</ele>
        <time>2019-04-27T08:39:52Z</time>
      </trkpt>
      <trkpt lat="43.75792" lon="7.14901">
        <ele>729.3702</ele>
        <time>2019-04-27T08:40:12Z</time>
      </trkpt>
      <trkpt lat="43.75797" lon="7.14904">
        <ele>730.0632</ele>
        <time>2019-04-27T08:40:17Z</time>
      </trkpt>
      <trkpt lat="43.75803" lon="7.14902">
        <ele>730.5682</ele>
        <time>2019-04-27T08:40:26Z</time>
      </trkpt>
      <trkpt lat="43.75809" lon="7.14902">
        <ele>731.1272</ele>
        <time>2019-04-27T08:40:31Z</time>
      </trkpt>
      <trkpt lat="43.75814" lon="7.14901">
        <ele>731.6112</ele>
        <time>2019-04-27T08:40:36Z</time>
      </trkpt>
      <trkpt lat="43.7582" lon="7.14896">
        <ele>732.0082</ele>
        <time>2019-04-27T08:40:41Z</time>
      </trkpt>
      <trkpt lat="43.75826" lon="7.14895">
        <ele>732.6972</ele>
        <time>2019-04-27T08:40:46Z</time>
      </trkpt>
      <trkpt lat="43.75832" lon="7.14896">
        <ele>733.9652</ele>
        <time>2019-04-27T08:40:56Z</time>
      </trkpt>
      <trkpt lat="43.75842" lon="7.1489">
        <ele>734.4082</ele>
        <time>2019-04-27T08:41:06Z</time>
      </trkpt>
      <trkpt lat="43.75846" lon="7.14887">
        <ele>734.98517</ele>
        <time>2019-04-27T08:41:10Z</time>
      </trkpt>
      <trkpt lat="43.7585" lon="7.14877">
        <ele>735.94415</ele>
        <time>2019-04-27T08:41:22Z</time>
      </trkpt>
      <trkpt lat="43.75858" lon="7.14866">
        <ele>736.10815</ele>
        <time>2019-04-27T08:41:32Z</time>
      </trkpt>
      <trkpt lat="43.75869" lon="7.14864">
        <ele>736.3872</ele>
        <time>2019-04-27T08:41:42Z</time>
      </trkpt>
      <trkpt lat="43.75881" lon="7.1486">
        <ele>736.9092</ele>
        <time>2019-04-27T08:41:52Z</time>
      </trkpt>
      <trkpt lat="43.75888" lon="7.14855">
        <ele>736.4262</ele>
        <time>2019-04-27T08:42:01Z</time>
      </trkpt>
      <trkpt lat="43.75894" lon="7.14852">
        <ele>736.4092</ele>
        <time>2019-04-27T08:42:07Z</time>
      </trkpt>
      <trkpt lat="43.75905" lon="7.14846">
        <ele>735.9392</ele>
        <time>2019-04-27T08:42:17Z</time>
      </trkpt>
      <trkpt lat="43.75917" lon="7.14845">
        <ele>736.0252</ele>
        <time>2019-04-27T08:42:27Z</time>
      </trkpt>
      <trkpt lat="43.75925" lon="7.14849">
        <ele>736.7442</ele>
        <time>2019-04-27T08:42:37Z</time>
      </trkpt>
      <trkpt lat="43.7593" lon="7.14853">
        <ele>737.5782</ele>
        <time>2019-04-27T08:42:42Z</time>
      </trkpt>
      <trkpt lat="43.75935" lon="7.14858">
        <ele>737.78015</ele>
        <time>2019-04-27T08:42:47Z</time>
      </trkpt>
      <trkpt lat="43.75942" lon="7.14863">
        <ele>738.7922</ele>
        <time>2019-04-27T08:42:56Z</time>
      </trkpt>
      <trkpt lat="43.75948" lon="7.14865">
        <ele>739.2762</ele>
        <time>2019-04-27T08:43:02Z</time>
      </trkpt>
      <trkpt lat="43.75957" lon="7.14866">
        <ele>740.0182</ele>
        <time>2019-04-27T08:43:12Z</time>
      </trkpt>
      <trkpt lat="43.75967" lon="7.14866">
        <ele>740.8722</ele>
        <time>2019-04-27T08:43:22Z</time>
      </trkpt>
      <trkpt lat="43.75973" lon="7.14862">
        <ele>741.55316</ele>
        <time>2019-04-27T08:43:32Z</time>
      </trkpt>
      <trkpt lat="43.75979" lon="7.14858">
        <ele>741.88416</ele>
        <time>2019-04-27T08:43:37Z</time>
      </trkpt>
      <trkpt lat="43.75986" lon="7.1485">
        <ele>742.2662</ele>
        <time>2019-04-27T08:43:47Z</time>
      </trkpt>
      <trkpt lat="43.75993" lon="7.14843">
        <ele>742.5602</ele>
        <time>2019-04-27T08:43:57Z</time>
      </trkpt>
      <trkpt lat="43.76001" lon="7.14843">
        <ele>743.3902</ele>
        <time>2019-04-27T08:44:07Z</time>
      </trkpt>
      <trkpt lat="43.76009" lon="7.14842">
        <ele>744.01416</ele>
        <time>2019-04-27T08:44:17Z</time>
      </trkpt>
      <trkpt lat="43.76015" lon="7.14846">
        <ele>744.9402</ele>
        <time>2019-04-27T08:44:22Z</time>
      </trkpt>
      <trkpt lat="43.7602" lon="7.14852">
        <ele>746.0892</ele>
        <time>2019-04-27T08:44:32Z</time>
      </trkpt>
      <trkpt lat="43.7603" lon="7.14856">
        <ele>747.13617</ele>
        <time>2019-04-27T08:44:42Z</time>
      </trkpt>
      <trkpt lat="43.76041" lon="7.14858">
        <ele>748.5642</ele>
        <time>2019-04-27T08:44:52Z</time>
      </trkpt>
      <trkpt lat="43.76051" lon="7.14859">
        <ele>750.61615</ele>
        <time>2019-04-27T08:45:02Z</time>
      </trkpt>
      <trkpt lat="43.76056" lon="7.1486">
        <ele>751.6092</ele>
        <time>2019-04-27T08:45:07Z</time>
      </trkpt>
      <trkpt lat="43.76064" lon="7.14865">
        <ele>753.4242</ele>
        <time>2019-04-27T08:45:17Z</time>
      </trkpt>
      <trkpt lat="43.76072" lon="7.14871">
        <ele>755.03516</ele>
        <time>2019-04-27T08:45:27Z</time>
      </trkpt>
      <trkpt lat="43.76082" lon="7.14873">
        <ele>756.5732</ele>
        <time>2019-04-27T08:45:37Z</time>
      </trkpt>
      <trkpt lat="43.76087" lon="7.14878">
        <ele>757.69916</ele>
        <time>2019-04-27T08:45:47Z</time>
      </trkpt>
      <trkpt lat="43.76093" lon="7.14883">
        <ele>758.30615</ele>
        <time>2019-04-27T08:45:52Z</time>
      </trkpt>
      <trkpt lat="43.76109" lon="7.14887">
        <ele>757.8312</ele>
        <time>2019-04-27T08:49:00Z</time>
      </trkpt>
      <trkpt lat="43.76117" lon="7.14889">
        <ele>757.1742</ele>
        <time>2019-04-27T08:49:06Z</time>
      </trkpt>
      <trkpt lat="43.76123" lon="7.14888">
        <ele>756.30817</ele>
        <time>2019-04-27T08:49:11Z</time>
      </trkpt>
      <trkpt lat="43.76132" lon="7.14887">
        <ele>754.0722</ele>
        <time>2019-04-27T08:49:21Z</time>
      </trkpt>
      <trkpt lat="43.76146" lon="7.14884">
        <ele>752.3912</ele>
        <time>2019-04-27T08:49:32Z</time>
      </trkpt>
      <trkpt lat="43.76156" lon="7.14884">
        <ele>752.86816</ele>
        <time>2019-04-27T08:49:42Z</time>
      </trkpt>
      <trkpt lat="43.76171" lon="7.14884">
        <ele>752.8002</ele>
        <time>2019-04-27T08:49:52Z</time>
      </trkpt>
      <trkpt lat="43.76176" lon="7.14882">
        <ele>753.1402</ele>
        <time>2019-04-27T08:49:57Z</time>
      </trkpt>
      <trkpt lat="43.76183" lon="7.1488">
        <ele>753.5672</ele>
        <time>2019-04-27T08:50:02Z</time>
      </trkpt>
      <trkpt lat="43.76188" lon="7.14879">
        <ele>753.8572</ele>
        <time>2019-04-27T08:50:07Z</time>
      </trkpt>
      <trkpt lat="43.76194" lon="7.14887">
        <ele>754.1492</ele>
        <time>2019-04-27T08:50:17Z</time>
      </trkpt>
      <trkpt lat="43.762" lon="7.14898">
        <ele>754.1712</ele>
        <time>2019-04-27T08:50:27Z</time>
      </trkpt>
      <trkpt lat="43.76199" lon="7.14906">
        <ele>753.7862</ele>
        <time>2019-04-27T08:50:37Z</time>
      </trkpt>
      <trkpt lat="43.76202" lon="7.14913">
        <ele>753.0752</ele>
        <time>2019-04-27T08:51:31Z</time>
      </trkpt>
      <trkpt lat="43.76207" lon="7.14919">
        <ele>751.9452</ele>
        <time>2019-04-27T08:51:36Z</time>
      </trkpt>
      <trkpt lat="43.76211" lon="7.14923">
        <ele>751.2792</ele>
        <time>2019-04-27T08:51:41Z</time>
      </trkpt>
      <trkpt lat="43.76217" lon="7.14926">
        <ele>750.2272</ele>
        <time>2019-04-27T08:51:46Z</time>
      </trkpt>
      <trkpt lat="43.76227" lon="7.14928">
        <ele>748.4782</ele>
        <time>2019-04-27T08:51:56Z</time>
      </trkpt>
      <trkpt lat="43.76233" lon="7.14928">
        <ele>747.7602</ele>
        <time>2019-04-27T08:52:01Z</time>
      </trkpt>
      <trkpt lat="43.7624" lon="7.14927">
        <ele>746.5672</ele>
        <time>2019-04-27T08:52:06Z</time>
      </trkpt>
      <trkpt lat="43.76252" lon="7.14929">
        <ele>744.3542</ele>
        <time>2019-04-27T08:52:16Z</time>
      </trkpt>
      <trkpt lat="43.7626" lon="7.14928">
        <ele>741.6972</ele>
        <time>2019-04-27T08:52:26Z</time>
      </trkpt>
      <trkpt lat="43.76268" lon="7.14926">
        <ele>741.04517</ele>
        <time>2019-04-27T08:52:32Z</time>
      </trkpt>
      <trkpt lat="43.76278" lon="7.1492">
        <ele>739.55316</ele>
        <time>2019-04-27T08:52:42Z</time>
      </trkpt>
      <trkpt lat="43.76287" lon="7.14921">
        <ele>738.5592</ele>
        <time>2019-04-27T08:52:52Z</time>
      </trkpt>
      <trkpt lat="43.76299" lon="7.14917">
        <ele>737.7782</ele>
        <time>2019-04-27T08:53:02Z</time>
      </trkpt>
      <trkpt lat="43.76304" lon="7.14916">
        <ele>737.7102</ele>
        <time>2019-04-27T08:53:07Z</time>
      </trkpt>
      <trkpt lat="43.76309" lon="7.14916">
        <ele>737.5252</ele>
        <time>2019-04-27T08:53:12Z</time>
      </trkpt>
      <trkpt lat="43.76315" lon="7.14918">
        <ele>737.1482</ele>
        <time>2019-04-27T08:53:17Z</time>
      </trkpt>
      <trkpt lat="43.76325" lon="7.1492">
        <ele>736.6282</ele>
        <time>2019-04-27T08:53:27Z</time>
      </trkpt>
      <trkpt lat="43.76337" lon="7.14914">
        <ele>736.8432</ele>
        <time>2019-04-27T08:53:37Z</time>
      </trkpt>
      <trkpt lat="43.76352" lon="7.14911">
        <ele>737.08716</ele>
        <time>2019-04-27T08:53:47Z</time>
      </trkpt>
      <trkpt lat="43.76363" lon="7.14909">
        <ele>737.2312</ele>
        <time>2019-04-27T08:53:57Z</time>
      </trkpt>
      <trkpt lat="43.76371" lon="7.14908">
        <ele>737.12616</ele>
        <time>2019-04-27T08:54:02Z</time>
      </trkpt>
      <trkpt lat="43.76382" lon="7.14903">
        <ele>737.07117</ele>
        <time>2019-04-27T08:54:12Z</time>
      </trkpt>
      <trkpt lat="43.76394" lon="7.14897">
        <ele>737.0472</ele>
        <time>2019-04-27T08:54:22Z</time>
      </trkpt>
      <trkpt lat="43.76407" lon="7.14893">
        <ele>737.2422</ele>
        <time>2019-04-27T08:54:32Z</time>
      </trkpt>
      <trkpt lat="43.76416" lon="7.14887">
        <ele>737.13916</ele>
        <time>2019-04-27T08:54:42Z</time>
      </trkpt>
      <trkpt lat="43.76422" lon="7.14886">
        <ele>736.8102</ele>
        <time>2019-04-27T08:54:46Z</time>
      </trkpt>
      <trkpt lat="43.76427" lon="7.14879">
        <ele>736.55316</ele>
        <time>2019-04-27T08:54:51Z</time>
      </trkpt>
      <trkpt lat="43.76431" lon="7.14873">
        <ele>736.6432</ele>
        <time>2019-04-27T08:54:56Z</time>
      </trkpt>
      <trkpt lat="43.7644" lon="7.14872">
        <ele>736.7572</ele>
        <time>2019-04-27T08:55:06Z</time>
      </trkpt>
      <trkpt lat="43.7645" lon="7.14859">
        <ele>736.5032</ele>
        <time>2019-04-27T08:55:16Z</time>
      </trkpt>
      <trkpt lat="43.76459" lon="7.14849">
        <ele>735.7502</ele>
        <time>2019-04-27T08:55:26Z</time>
      </trkpt>
      <trkpt lat="43.76462" lon="7.14842">
        <ele>735.95715</ele>
        <time>2019-04-27T08:55:31Z</time>
      </trkpt>
      <trkpt lat="43.76471" lon="7.14838">
        <ele>734.7322</ele>
        <time>2019-04-27T08:55:41Z</time>
      </trkpt>
      <trkpt lat="43.7648" lon="7.14831">
        <ele>733.5152</ele>
        <time>2019-04-27T08:55:51Z</time>
      </trkpt>
      <trkpt lat="43.76491" lon="7.14823">
        <ele>733.1512</ele>
        <time>2019-04-27T08:56:06Z</time>
      </trkpt>
      <trkpt lat="43.76497" lon="7.14818">
        <ele>732.5392</ele>
        <time>2019-04-27T08:56:12Z</time>
      </trkpt>
      <trkpt lat="43.76503" lon="7.14807">
        <ele>731.3072</ele>
        <time>2019-04-27T08:56:22Z</time>
      </trkpt>
      <trkpt lat="43.76509" lon="7.14799">
        <ele>730.8462</ele>
        <time>2019-04-27T08:56:31Z</time>
      </trkpt>
      <trkpt lat="43.76514" lon="7.14793">
        <ele>730.5122</ele>
        <time>2019-04-27T08:56:37Z</time>
      </trkpt>
      <trkpt lat="43.76529" lon="7.14787">
        <ele>728.50916</ele>
        <time>2019-04-27T08:58:17Z</time>
      </trkpt>
      <trkpt lat="43.76537" lon="7.1478">
        <ele>728.0052</ele>
        <time>2019-04-27T08:58:27Z</time>
      </trkpt>
      <trkpt lat="43.76543" lon="7.14773">
        <ele>726.5542</ele>
        <time>2019-04-27T08:58:37Z</time>
      </trkpt>
      <trkpt lat="43.76555" lon="7.14767">
        <ele>725.5982</ele>
        <time>2019-04-27T08:58:47Z</time>
      </trkpt>
      <trkpt lat="43.76559" lon="7.14765">
        <ele>725.3482</ele>
        <time>2019-04-27T08:58:52Z</time>
      </trkpt>
      <trkpt lat="43.76572" lon="7.1476">
        <ele>724.8262</ele>
        <time>2019-04-27T08:59:02Z</time>
      </trkpt>
      <trkpt lat="43.76586" lon="7.14761">
        <ele>724.4392</ele>
        <time>2019-04-27T08:59:12Z</time>
      </trkpt>
      <trkpt lat="43.76593" lon="7.1476">
        <ele>725.4992</ele>
        <time>2019-04-27T08:59:22Z</time>
      </trkpt>
      <trkpt lat="43.76603" lon="7.14761">
        <ele>725.50116</ele>
        <time>2019-04-27T08:59:31Z</time>
      </trkpt>
      <trkpt lat="43.76606" lon="7.14755">
        <ele>725.1972</ele>
        <time>2019-04-27T08:59:36Z</time>
      </trkpt>
      <trkpt lat="43.76609" lon="7.14751">
        <ele>724.0622</ele>
        <time>2019-04-27T08:59:41Z</time>
      </trkpt>
      <trkpt lat="43.76612" lon="7.14746">
        <ele>723.72015</ele>
        <time>2019-04-27T08:59:46Z</time>
      </trkpt>
      <trkpt lat="43.76621" lon="7.14737">
        <ele>722.0682</ele>
        <time>2019-04-27T08:59:56Z</time>
      </trkpt>
      <trkpt lat="43.76634" lon="7.14729">
        <ele>721.6582</ele>
        <time>2019-04-27T09:00:06Z</time>
      </trkpt>
      <trkpt lat="43.76643" lon="7.14723">
        <ele>721.3382</ele>
        <time>2019-04-27T09:00:16Z</time>
      </trkpt>
      <trkpt lat="43.76648" lon="7.14717">
        <ele>720.8652</ele>
        <time>2019-04-27T09:00:21Z</time>
      </trkpt>
      <trkpt lat="43.76651" lon="7.14713">
        <ele>720.6372</ele>
        <time>2019-04-27T09:00:26Z</time>
      </trkpt>
      <trkpt lat="43.76657" lon="7.14706">
        <ele>719.6712</ele>
        <time>2019-04-27T09:00:31Z</time>
      </trkpt>
      <trkpt lat="43.76668" lon="7.14701">
        <ele>719.3622</ele>
        <time>2019-04-27T09:00:41Z</time>
      </trkpt>
      <trkpt lat="43.7668" lon="7.14698">
        <ele>718.1712</ele>
        <time>2019-04-27T09:00:51Z</time>
      </trkpt>
      <trkpt lat="43.76691" lon="7.14693">
        <ele>716.67017</ele>
        <time>2019-04-27T09:01:01Z</time>
      </trkpt>
      <trkpt lat="43.76701" lon="7.14688">
        <ele>715.65515</ele>
        <time>2019-04-27T09:01:11Z</time>
      </trkpt>
      <trkpt lat="43.76707" lon="7.14687">
        <ele>715.2372</ele>
        <time>2019-04-27T09:01:16Z</time>
      </trkpt>
      <trkpt lat="43.76721" lon="7.14684">
        <ele>713.9692</ele>
        <time>2019-04-27T09:01:26Z</time>
      </trkpt>
      <trkpt lat="43.76727" lon="7.14681">
        <ele>712.3052</ele>
        <time>2019-04-27T09:01:37Z</time>
      </trkpt>
      <trkpt lat="43.76739" lon="7.14677">
        <ele>710.3702</ele>
        <time>2019-04-27T09:01:47Z</time>
      </trkpt>
      <trkpt lat="43.76752" lon="7.14674">
        <ele>708.7402</ele>
        <time>2019-04-27T09:01:57Z</time>
      </trkpt>
      <trkpt lat="43.76756" lon="7.14672">
        <ele>707.9522</ele>
        <time>2019-04-27T09:02:02Z</time>
      </trkpt>
      <trkpt lat="43.76761" lon="7.14672">
        <ele>707.54517</ele>
        <time>2019-04-27T09:02:07Z</time>
      </trkpt>
      <trkpt lat="43.76767" lon="7.14672">
        <ele>706.8982</ele>
        <time>2019-04-27T09:02:12Z</time>
      </trkpt>
      <trkpt lat="43.76777" lon="7.14675">
        <ele>706.31915</ele>
        <time>2019-04-27T09:03:01Z</time>
      </trkpt>
      <trkpt lat="43.76785" lon="7.14677">
        <ele>706.0082</ele>
        <time>2019-04-27T09:03:07Z</time>
      </trkpt>
      <trkpt lat="43.76794" lon="7.14679">
        <ele>704.9662</ele>
        <time>2019-04-27T09:03:17Z</time>
      </trkpt>
      <trkpt lat="43.76802" lon="7.14682">
        <ele>703.56915</ele>
        <time>2019-04-27T09:03:31Z</time>
      </trkpt>
      <trkpt lat="43.76807" lon="7.14683">
        <ele>702.13416</ele>
        <time>2019-04-27T09:03:41Z</time>
      </trkpt>
      <trkpt lat="43.76812" lon="7.14684">
        <ele>701.4222</ele>
        <time>2019-04-27T09:03:46Z</time>
      </trkpt>
      <trkpt lat="43.76819" lon="7.14685">
        <ele>699.7362</ele>
        <time>2019-04-27T09:03:56Z</time>
      </trkpt>
      <trkpt lat="43.76827" lon="7.14689">
        <ele>698.4792</ele>
        <time>2019-04-27T09:04:02Z</time>
      </trkpt>
      <trkpt lat="43.76836" lon="7.14677">
        <ele>697.23315</ele>
        <time>2019-04-27T09:04:12Z</time>
      </trkpt>
      <trkpt lat="43.76844" lon="7.14667">
        <ele>695.8822</ele>
        <time>2019-04-27T09:04:22Z</time>
      </trkpt>
      <trkpt lat="43.76848" lon="7.14662">
        <ele>695.2472</ele>
        <time>2019-04-27T09:04:27Z</time>
      </trkpt>
      <trkpt lat="43.76852" lon="7.14657">
        <ele>694.74615</ele>
        <time>2019-04-27T09:04:32Z</time>
      </trkpt>
      <trkpt lat="43.76856" lon="7.14651">
        <ele>693.8222</ele>
        <time>2019-04-27T09:04:37Z</time>
      </trkpt>
      <trkpt lat="43.76864" lon="7.14643">
        <ele>692.2052</ele>
        <time>2019-04-27T09:04:47Z</time>
      </trkpt>
      <trkpt lat="43.76873" lon="7.14631">
        <ele>690.5782</ele>
        <time>2019-04-27T09:04:57Z</time>
      </trkpt>
      <trkpt lat="43.76883" lon="7.14622">
        <ele>688.76117</ele>
        <time>2019-04-27T09:05:07Z</time>
      </trkpt>
      <trkpt lat="43.76887" lon="7.1462">
        <ele>688.2372</ele>
        <time>2019-04-27T09:05:12Z</time>
      </trkpt>
      <trkpt lat="43.76891" lon="7.14614">
        <ele>687.3262</ele>
        <time>2019-04-27T09:05:17Z</time>
      </trkpt>
      <trkpt lat="43.76895" lon="7.14611">
        <ele>686.0182</ele>
        <time>2019-04-27T09:05:22Z</time>
      </trkpt>
      <trkpt lat="43.76902" lon="7.14603">
        <ele>684.2152</ele>
        <time>2019-04-27T09:05:32Z</time>
      </trkpt>
      <trkpt lat="43.7691" lon="7.14596">
        <ele>682.37317</ele>
        <time>2019-04-27T09:05:42Z</time>
      </trkpt>
      <trkpt lat="43.76918" lon="7.14586">
        <ele>680.7602</ele>
        <time>2019-04-27T09:05:52Z</time>
      </trkpt>
      <trkpt lat="43.76928" lon="7.14577">
        <ele>679.1282</ele>
        <time>2019-04-27T09:06:02Z</time>
      </trkpt>
      <trkpt lat="43.76933" lon="7.14571">
        <ele>679.0082</ele>
        <time>2019-04-27T09:06:07Z</time>
      </trkpt>
      <trkpt lat="43.76944" lon="7.14567">
        <ele>677.0512</ele>
        <time>2019-04-27T09:06:17Z</time>
      </trkpt>
      <trkpt lat="43.76954" lon="7.14562">
        <ele>675.3672</ele>
        <time>2019-04-27T09:06:27Z</time>
      </trkpt>
      <trkpt lat="43.76962" lon="7.14554">
        <ele>674.1662</ele>
        <time>2019-04-27T09:06:41Z</time>
      </trkpt>
      <trkpt lat="43.7697" lon="7.14547">
        <ele>671.9812</ele>
        <time>2019-04-27T09:06:51Z</time>
      </trkpt>
      <trkpt lat="43.76974" lon="7.14542">
        <ele>674.18317</ele>
        <time>2019-04-27T09:06:57Z</time>
      </trkpt>
      <trkpt lat="43.76981" lon="7.14535">
        <ele>673.5442</ele>
        <time>2019-04-27T09:07:06Z</time>
      </trkpt>
      <trkpt lat="43.76987" lon="7.14531">
        <ele>672.8252</ele>
        <time>2019-04-27T09:07:16Z</time>
      </trkpt>
      <trkpt lat="43.76995" lon="7.14517">
        <ele>670.55316</ele>
        <time>2019-04-27T09:07:36Z</time>
      </trkpt>
      <trkpt lat="43.77" lon="7.1451">
        <ele>669.45917</ele>
        <time>2019-04-27T09:07:42Z</time>
      </trkpt>
      <trkpt lat="43.77002" lon="7.145">
        <ele>666.6302</ele>
        <time>2019-04-27T09:07:51Z</time>
      </trkpt>
      <trkpt lat="43.77003" lon="7.14494">
        <ele>666.6982</ele>
        <time>2019-04-27T09:07:57Z</time>
      </trkpt>
      <trkpt lat="43.7701" lon="7.14487">
        <ele>665.1642</ele>
        <time>2019-04-27T09:08:07Z</time>
      </trkpt>
      <trkpt lat="43.77012" lon="7.14472">
        <ele>664.3882</ele>
        <time>2019-04-27T09:08:17Z</time>
      </trkpt>
      <trkpt lat="43.77017" lon="7.14458">
        <ele>666.0372</ele>
        <time>2019-04-27T09:08:27Z</time>
      </trkpt>
      <trkpt lat="43.7702" lon="7.14453">
        <ele>666.2342</ele>
        <time>2019-04-27T09:08:32Z</time>
      </trkpt>
      <trkpt lat="43.77029" lon="7.14449">
        <ele>666.9812</ele>
        <time>2019-04-27T09:08:42Z</time>
      </trkpt>
      <trkpt lat="43.7704" lon="7.14441">
        <ele>667.2842</ele>
        <time>2019-04-27T09:08:52Z</time>
      </trkpt>
      <trkpt lat="43.77048" lon="7.14436">
        <ele>667.5802</ele>
        <time>2019-04-27T09:09:02Z</time>
      </trkpt>
      <trkpt lat="43.77053" lon="7.14429">
        <ele>668.0492</ele>
        <time>2019-04-27T09:09:12Z</time>
      </trkpt>
      <trkpt lat="43.77059" lon="7.14427">
        <ele>668.2452</ele>
        <time>2019-04-27T09:09:17Z</time>
      </trkpt>
      <trkpt lat="43.77066" lon="7.14421">
        <ele>668.1932</ele>
        <time>2019-04-27T09:09:31Z</time>
      </trkpt>
      <trkpt lat="43.77079" lon="7.14409">
        <ele>669.59216</ele>
        <time>2019-04-27T09:09:47Z</time>
      </trkpt>
      <trkpt lat="43.77086" lon="7.14405">
        <ele>669.67017</ele>
        <time>2019-04-27T09:09:57Z</time>
      </trkpt>
      <trkpt lat="43.7709" lon="7.14401">
        <ele>669.6772</ele>
        <time>2019-04-27T09:10:02Z</time>
      </trkpt>
      <trkpt lat="43.77097" lon="7.14397">
        <ele>670.0252</ele>
        <time>2019-04-27T09:10:12Z</time>
      </trkpt>
      <trkpt lat="43.77105" lon="7.14388">
        <ele>670.3512</ele>
        <time>2019-04-27T09:10:22Z</time>
      </trkpt>
      <trkpt lat="43.77111" lon="7.1438">
        <ele>670.78217</ele>
        <time>2019-04-27T09:10:32Z</time>
      </trkpt>
      <trkpt lat="43.77123" lon="7.14369">
        <ele>671.3012</ele>
        <time>2019-04-27T09:10:42Z</time>
      </trkpt>
      <trkpt lat="43.77131" lon="7.14359">
        <ele>671.6632</ele>
        <time>2019-04-27T09:10:52Z</time>
      </trkpt>
      <trkpt lat="43.77135" lon="7.14353">
        <ele>671.91815</ele>
        <time>2019-04-27T09:10:57Z</time>
      </trkpt>
      <trkpt lat="43.77142" lon="7.14344">
        <ele>672.6742</ele>
        <time>2019-04-27T09:11:07Z</time>
      </trkpt>
      <trkpt lat="43.77149" lon="7.14334">
        <ele>673.58417</ele>
        <time>2019-04-27T09:11:17Z</time>
      </trkpt>
      <trkpt lat="43.77157" lon="7.14324">
        <ele>673.8962</ele>
        <time>2019-04-27T09:11:27Z</time>
      </trkpt>
      <trkpt lat="43.77166" lon="7.14316">
        <ele>674.4952</ele>
        <time>2019-04-27T09:11:37Z</time>
      </trkpt>
      <trkpt lat="43.77169" lon="7.1431">
        <ele>674.4842</ele>
        <time>2019-04-27T09:11:42Z</time>
      </trkpt>
      <trkpt lat="43.77173" lon="7.14304">
        <ele>674.5082</ele>
        <time>2019-04-27T09:11:47Z</time>
      </trkpt>
      <trkpt lat="43.77176" lon="7.14298">
        <ele>674.3902</ele>
        <time>2019-04-27T09:11:52Z</time>
      </trkpt>
      <trkpt lat="43.77184" lon="7.14287">
        <ele>675.0802</ele>
        <time>2019-04-27T09:12:02Z</time>
      </trkpt>
      <trkpt lat="43.77189" lon="7.14277">
        <ele>675.8382</ele>
        <time>2019-04-27T09:12:12Z</time>
      </trkpt>
      <trkpt lat="43.77195" lon="7.14267">
        <ele>676.20715</ele>
        <time>2019-04-27T09:12:22Z</time>
      </trkpt>
      <trkpt lat="43.77204" lon="7.14264">
        <ele>676.4062</ele>
        <time>2019-04-27T09:12:32Z</time>
      </trkpt>
      <trkpt lat="43.7721" lon="7.14259">
        <ele>676.9402</ele>
        <time>2019-04-27T09:12:41Z</time>
      </trkpt>
      <trkpt lat="43.77219" lon="7.14255">
        <ele>677.0162</ele>
        <time>2019-04-27T09:13:01Z</time>
      </trkpt>
      <trkpt lat="43.77219" lon="7.14241">
        <ele>677.6952</ele>
        <time>2019-04-27T09:13:52Z</time>
      </trkpt>
      <trkpt lat="43.77226" lon="7.14233">
        <ele>678.15515</ele>
        <time>2019-04-27T09:14:02Z</time>
      </trkpt>
      <trkpt lat="43.7723" lon="7.14226">
        <ele>678.5152</ele>
        <time>2019-04-27T09:14:07Z</time>
      </trkpt>
      <trkpt lat="43.77239" lon="7.14219">
        <ele>679.10815</ele>
        <time>2019-04-27T09:14:17Z</time>
      </trkpt>
      <trkpt lat="43.77246" lon="7.14207">
        <ele>679.70917</ele>
        <time>2019-04-27T09:14:27Z</time>
      </trkpt>
      <trkpt lat="43.7725" lon="7.14195">
        <ele>680.1892</ele>
        <time>2019-04-27T09:14:37Z</time>
      </trkpt>
      <trkpt lat="43.77247" lon="7.1418">
        <ele>680.8872</ele>
        <time>2019-04-27T09:14:47Z</time>
      </trkpt>
      <trkpt lat="43.77246" lon="7.14172">
        <ele>681.4872</ele>
        <time>2019-04-27T09:14:52Z</time>
      </trkpt>
      <trkpt lat="43.77249" lon="7.14164">
        <ele>681.6202</ele>
        <time>2019-04-27T09:14:57Z</time>
      </trkpt>
      <trkpt lat="43.77253" lon="7.14159">
        <ele>682.1332</ele>
        <time>2019-04-27T09:15:06Z</time>
      </trkpt>
      <trkpt lat="43.77257" lon="7.14154">
        <ele>682.6332</ele>
        <time>2019-04-27T09:15:12Z</time>
      </trkpt>
      <trkpt lat="43.77264" lon="7.14144">
        <ele>683.4642</ele>
        <time>2019-04-27T09:15:22Z</time>
      </trkpt>
      <trkpt lat="43.7727" lon="7.14132">
        <ele>684.4242</ele>
        <time>2019-04-27T09:15:32Z</time>
      </trkpt>
      <trkpt lat="43.77275" lon="7.14122">
        <ele>685.3052</ele>
        <time>2019-04-27T09:15:42Z</time>
      </trkpt>
      <trkpt lat="43.77277" lon="7.14117">
        <ele>685.4922</ele>
        <time>2019-04-27T09:15:47Z</time>
      </trkpt>
      <trkpt lat="43.77283" lon="7.14105">
        <ele>686.5162</ele>
        <time>2019-04-27T09:15:57Z</time>
      </trkpt>
      <trkpt lat="43.77289" lon="7.14093">
        <ele>687.6322</ele>
        <time>2019-04-27T09:16:07Z</time>
      </trkpt>
      <trkpt lat="43.77296" lon="7.14084">
        <ele>688.87915</ele>
        <time>2019-04-27T09:16:17Z</time>
      </trkpt>
      <trkpt lat="43.77303" lon="7.14075">
        <ele>689.3482</ele>
        <time>2019-04-27T09:16:27Z</time>
      </trkpt>
      <trkpt lat="43.7731" lon="7.1407">
        <ele>690.1432</ele>
        <time>2019-04-27T09:16:32Z</time>
      </trkpt>
      <trkpt lat="43.77316" lon="7.14061">
        <ele>690.6632</ele>
        <time>2019-04-27T09:16:42Z</time>
      </trkpt>
      <trkpt lat="43.77323" lon="7.14055">
        <ele>692.0592</ele>
        <time>2019-04-27T09:16:52Z</time>
      </trkpt>
      <trkpt lat="43.77331" lon="7.14048">
        <ele>692.3692</ele>
        <time>2019-04-27T09:17:02Z</time>
      </trkpt>
      <trkpt lat="43.7734" lon="7.14044">
        <ele>693.9032</ele>
        <time>2019-04-27T09:17:12Z</time>
      </trkpt>
      <trkpt lat="43.77346" lon="7.14043">
        <ele>695.1482</ele>
        <time>2019-04-27T09:17:22Z</time>
      </trkpt>
      <trkpt lat="43.77358" lon="7.14038">
        <ele>697.2392</ele>
        <time>2019-04-27T09:17:37Z</time>
      </trkpt>
      <trkpt lat="43.77366" lon="7.14032">
        <ele>699.3952</ele>
        <time>2019-04-27T09:17:47Z</time>
      </trkpt>
      <trkpt lat="43.77372" lon="7.14025">
        <ele>699.2812</ele>
        <time>2019-04-27T09:17:57Z</time>
      </trkpt>
      <trkpt lat="43.77374" lon="7.14017">
        <ele>699.7972</ele>
        <time>2019-04-27T09:18:02Z</time>
      </trkpt>
      <trkpt lat="43.77377" lon="7.1401">
        <ele>699.8952</ele>
        <time>2019-04-27T09:18:07Z</time>
      </trkpt>
      <trkpt lat="43.77383" lon="7.14006">
        <ele>700.3022</ele>
        <time>2019-04-27T09:18:12Z</time>
      </trkpt>
      <trkpt lat="43.77392" lon="7.14004">
        <ele>701.0912</ele>
        <time>2019-04-27T09:18:22Z</time>
      </trkpt>
      <trkpt lat="43.77404" lon="7.14007">
        <ele>702.2552</ele>
        <time>2019-04-27T09:18:32Z</time>
      </trkpt>
      <trkpt lat="43.77409" lon="7.14009">
        <ele>702.8302</ele>
        <time>2019-04-27T09:18:42Z</time>
      </trkpt>
      <trkpt lat="43.77418" lon="7.14004">
        <ele>703.53217</ele>
        <time>2019-04-27T09:18:52Z</time>
      </trkpt>
      <trkpt lat="43.77423" lon="7.14">
        <ele>703.62317</ele>
        <time>2019-04-27T09:18:57Z</time>
      </trkpt>
      <trkpt lat="43.7743" lon="7.13995">
        <ele>704.0852</ele>
        <time>2019-04-27T09:19:07Z</time>
      </trkpt>
      <trkpt lat="43.77439" lon="7.13986">
        <ele>702.8822</ele>
        <time>2019-04-27T09:19:17Z</time>
      </trkpt>
      <trkpt lat="43.77444" lon="7.13978">
        <ele>704.9552</ele>
        <time>2019-04-27T09:19:27Z</time>
      </trkpt>
      <trkpt lat="43.7745" lon="7.13968">
        <ele>705.7652</ele>
        <time>2019-04-27T09:19:37Z</time>
      </trkpt>
      <trkpt lat="43.77454" lon="7.13964">
        <ele>706.5262</ele>
        <time>2019-04-27T09:19:42Z</time>
      </trkpt>
      <trkpt lat="43.77457" lon="7.13958">
        <ele>707.01416</ele>
        <time>2019-04-27T09:19:47Z</time>
      </trkpt>
      <trkpt lat="43.77458" lon="7.13952">
        <ele>707.6072</ele>
        <time>2019-04-27T09:19:52Z</time>
      </trkpt>
      <trkpt lat="43.77459" lon="7.13939">
        <ele>709.3182</ele>
        <time>2019-04-27T09:20:02Z</time>
      </trkpt>
      <trkpt lat="43.77454" lon="7.13926">
        <ele>711.0672</ele>
        <time>2019-04-27T09:20:12Z</time>
      </trkpt>
      <trkpt lat="43.77461" lon="7.13917">
        <ele>710.7012</ele>
        <time>2019-04-27T09:20:22Z</time>
      </trkpt>
      <trkpt lat="43.77464" lon="7.13911">
        <ele>711.3382</ele>
        <time>2019-04-27T09:20:27Z</time>
      </trkpt>
      <trkpt lat="43.77466" lon="7.13905">
        <ele>711.5132</ele>
        <time>2019-04-27T09:20:32Z</time>
      </trkpt>
      <trkpt lat="43.77469" lon="7.13896">
        <ele>713.8072</ele>
        <time>2019-04-27T09:20:41Z</time>
      </trkpt>
      <trkpt lat="43.77474" lon="7.1389">
        <ele>713.5572</ele>
        <time>2019-04-27T09:20:47Z</time>
      </trkpt>
      <trkpt lat="43.77482" lon="7.1388">
        <ele>714.4862</ele>
        <time>2019-04-27T09:20:57Z</time>
      </trkpt>
      <trkpt lat="43.77489" lon="7.13876">
        <ele>714.4792</ele>
        <time>2019-04-27T09:21:07Z</time>
      </trkpt>
      <trkpt lat="43.77505" lon="7.13871">
        <ele>717.82916</ele>
        <time>2019-04-27T09:21:42Z</time>
      </trkpt>
      <trkpt lat="43.77514" lon="7.13859">
        <ele>719.6762</ele>
        <time>2019-04-27T09:21:52Z</time>
      </trkpt>
      <trkpt lat="43.77515" lon="7.1385">
        <ele>721.69116</ele>
        <time>2019-04-27T09:22:06Z</time>
      </trkpt>
      <trkpt lat="43.77519" lon="7.13836">
        <ele>723.8952</ele>
        <time>2019-04-27T09:22:21Z</time>
      </trkpt>
      <trkpt lat="43.77523" lon="7.13829">
        <ele>725.7192</ele>
        <time>2019-04-27T09:23:06Z</time>
      </trkpt>
      <trkpt lat="43.77525" lon="7.13837">
        <ele>726.6242</ele>
        <time>2019-04-27T09:23:42Z</time>
      </trkpt>
      <trkpt lat="43.77523" lon="7.13843">
        <ele>726.8012</ele>
        <time>2019-04-27T09:23:52Z</time>
      </trkpt>
      <trkpt lat="43.77523" lon="7.1386">
        <ele>726.7662</ele>
        <time>2019-04-27T09:24:11Z</time>
      </trkpt>
      <trkpt lat="43.77524" lon="7.13866">
        <ele>727.5202</ele>
        <time>2019-04-27T09:24:17Z</time>
      </trkpt>
      <trkpt lat="43.77525" lon="7.13875">
        <ele>728.7262</ele>
        <time>2019-04-27T09:24:27Z</time>
      </trkpt>
      <trkpt lat="43.77531" lon="7.13868">
        <ele>730.28015</ele>
        <time>2019-04-27T09:24:37Z</time>
      </trkpt>
      <trkpt lat="43.77538" lon="7.13862">
        <ele>731.6352</ele>
        <time>2019-04-27T09:24:46Z</time>
      </trkpt>
      <trkpt lat="43.77544" lon="7.13856">
        <ele>733.5132</ele>
        <time>2019-04-27T09:24:56Z</time>
      </trkpt>
      <trkpt lat="43.77557" lon="7.13843">
        <ele>736.7532</ele>
        <time>2019-04-27T09:25:22Z</time>
      </trkpt>
      <trkpt lat="43.77562" lon="7.13841">
        <ele>738.0502</ele>
        <time>2019-04-27T09:25:31Z</time>
      </trkpt>
      <trkpt lat="43.77567" lon="7.13839">
        <ele>738.6402</ele>
        <time>2019-04-27T09:25:37Z</time>
      </trkpt>
      <trkpt lat="43.77583" lon="7.13825">
        <ele>740.4552</ele>
        <time>2019-04-27T09:26:11Z</time>
      </trkpt>
      <trkpt lat="43.7758" lon="7.13821">
        <ele>740.52716</ele>
        <time>2019-04-27T09:26:46Z</time>
      </trkpt>
      <trkpt lat="43.77578" lon="7.13833">
        <ele>740.69617</ele>
        <time>2019-04-27T09:26:56Z</time>
      </trkpt>
      <trkpt lat="43.77573" lon="7.13842">
        <ele>741.1122</ele>
        <time>2019-04-27T09:27:02Z</time>
      </trkpt>
      <trkpt lat="43.77581" lon="7.13837">
        <ele>742.99115</ele>
        <time>2019-04-27T09:27:17Z</time>
      </trkpt>
      <trkpt lat="43.7759" lon="7.13835">
        <ele>744.1302</ele>
        <time>2019-04-27T09:27:27Z</time>
      </trkpt>
      <trkpt lat="43.77598" lon="7.13835">
        <ele>745.33716</ele>
        <time>2019-04-27T09:27:38Z</time>
      </trkpt>
      <trkpt lat="43.77607" lon="7.13832">
        <ele>746.9322</ele>
        <time>2019-04-27T09:27:48Z</time>
      </trkpt>
      <trkpt lat="43.77616" lon="7.13824">
        <ele>748.52716</ele>
        <time>2019-04-27T09:28:12Z</time>
      </trkpt>
      <trkpt lat="43.77622" lon="7.1382">
        <ele>750.01416</ele>
        <time>2019-04-27T09:28:22Z</time>
      </trkpt>
      <trkpt lat="43.77628" lon="7.13815">
        <ele>751.2002</ele>
        <time>2019-04-27T09:28:31Z</time>
      </trkpt>
      <trkpt lat="43.77635" lon="7.1381">
        <ele>752.6092</ele>
        <time>2019-04-27T09:28:41Z</time>
      </trkpt>
      <trkpt lat="43.77639" lon="7.13806">
        <ele>753.3822</ele>
        <time>2019-04-27T09:28:47Z</time>
      </trkpt>
      <trkpt lat="43.77643" lon="7.13803">
        <ele>755.03217</ele>
        <time>2019-04-27T09:28:57Z</time>
      </trkpt>
      <trkpt lat="43.77645" lon="7.1381">
        <ele>755.5362</ele>
        <time>2019-04-27T09:29:07Z</time>
      </trkpt>
      <trkpt lat="43.77645" lon="7.1381">
        <ele>755.79315</ele>
        <time>2019-04-27T09:29:32Z</time>
      </trkpt>
      <trkpt lat="43.77645" lon="7.1381">
        <ele>755.79315</ele>
        <time>2019-04-27T09:29:41Z</time>
      </trkpt>
      <trkpt lat="43.77659" lon="7.13793">
        <ele>758.3352</ele>
        <time>2019-04-27T09:29:47Z</time>
      </trkpt>
      <trkpt lat="43.77662" lon="7.1379">
        <ele>758.8952</ele>
        <time>2019-04-27T09:29:52Z</time>
      </trkpt>
      <trkpt lat="43.77662" lon="7.1379">
        <ele>759.80615</ele>
        <time>2019-04-27T09:30:12Z</time>
      </trkpt>
      <trkpt lat="43.77662" lon="7.1379">
        <ele>759.80615</ele>
        <time>2019-04-27T09:30:17Z</time>
      </trkpt>
      <trkpt lat="43.77662" lon="7.1379">
        <ele>759.80615</ele>
        <time>2019-04-27T09:30:22Z</time>
      </trkpt>
      <trkpt lat="43.77662" lon="7.1379">
        <ele>759.80615</ele>
        <time>2019-04-27T09:30:27Z</time>
      </trkpt>
      <trkpt lat="43.77662" lon="7.1379">
        <ele>759.80615</ele>
        <time>2019-04-27T09:30:52Z</time>
      </trkpt>
      <trkpt lat="43.77662" lon="7.1379">
        <ele>759.80615</ele>
        <time>2019-04-27T09:30:57Z</time>
      </trkpt>
      <trkpt lat="43.77662" lon="7.1379">
        <ele>759.80615</ele>
        <time>2019-04-27T09:31:01Z</time>
      </trkpt>
      <trkpt lat="43.77662" lon="7.1379">
        <ele>759.80615</ele>
        <time>2019-04-27T09:31:07Z</time>
      </trkpt>
      <trkpt lat="43.77662" lon="7.1379">
        <ele>759.80615</ele>
        <time>2019-04-27T09:31:17Z</time>
      </trkpt>
      <trkpt lat="43.77662" lon="7.1379">
        <ele>759.80615</ele>
        <time>2019-04-27T09:31:27Z</time>
      </trkpt>
      <trkpt lat="43.77662" lon="7.1379">
        <ele>759.80615</ele>
        <time>2019-04-27T09:31:32Z</time>
      </trkpt>
      <trkpt lat="43.77662" lon="7.1379">
        <ele>759.80615</ele>
        <time>2019-04-27T09:31:46Z</time>
      </trkpt>
      <trkpt lat="43.77662" lon="7.1379">
        <ele>759.80615</ele>
        <time>2019-04-27T09:31:52Z</time>
      </trkpt>
      <trkpt lat="43.77662" lon="7.1379">
        <ele>759.80615</ele>
        <time>2019-04-27T09:31:57Z</time>
      </trkpt>
      <trkpt lat="43.77662" lon="7.1379">
        <ele>759.80615</ele>
        <time>2019-04-27T09:32:07Z</time>
      </trkpt>
      <trkpt lat="43.77662" lon="7.1379">
        <ele>759.80615</ele>
        <time>2019-04-27T09:32:31Z</time>
      </trkpt>
      <trkpt lat="43.77662" lon="7.1379">
        <ele>759.80615</ele>
        <time>2019-04-27T09:32:37Z</time>
      </trkpt>
      <trkpt lat="43.77662" lon="7.1379">
        <ele>759.80615</ele>
        <time>2019-04-27T09:32:46Z</time>
      </trkpt>
      <trkpt lat="43.77662" lon="7.1379">
        <ele>759.80615</ele>
        <time>2019-04-27T09:33:06Z</time>
      </trkpt>
      <trkpt lat="43.77662" lon="7.1379">
        <ele>759.80615</ele>
        <time>2019-04-27T09:33:11Z</time>
      </trkpt>
      <trkpt lat="43.77662" lon="7.1379">
        <ele>759.80615</ele>
        <time>2019-04-27T09:33:16Z</time>
      </trkpt>
      <trkpt lat="43.77662" lon="7.1379">
        <ele>759.80615</ele>
        <time>2019-04-27T09:33:21Z</time>
      </trkpt>
      <trkpt lat="43.77662" lon="7.1379">
        <ele>759.80615</ele>
        <time>2019-04-27T09:33:26Z</time>
      </trkpt>
      <trkpt lat="43.77662" lon="7.1379">
        <ele>759.80615</ele>
        <time>2019-04-27T09:33:31Z</time>
      </trkpt>
      <trkpt lat="43.77662" lon="7.1379">
        <ele>759.80615</ele>
        <time>2019-04-27T09:33:37Z</time>
      </trkpt>
      <trkpt lat="43.77662" lon="7.1379">
        <ele>759.80615</ele>
        <time>2019-04-27T09:33:41Z</time>
      </trkpt>
      <trkpt lat="43.77662" lon="7.1379">
        <ele>759.80615</ele>
        <time>2019-04-27T09:33:46Z</time>
      </trkpt>
      <trkpt lat="43.77662" lon="7.1379">
        <ele>759.80615</ele>
        <time>2019-04-27T09:34:02Z</time>
      </trkpt>
      <trkpt lat="43.77662" lon="7.1379">
        <ele>759.80615</ele>
        <time>2019-04-27T09:34:07Z</time>
      </trkpt>
      <trkpt lat="43.77662" lon="7.1379">
        <ele>759.80615</ele>
        <time>2019-04-27T09:34:12Z</time>
      </trkpt>
      <trkpt lat="43.77662" lon="7.1379">
        <ele>759.80615</ele>
        <time>2019-04-27T09:34:17Z</time>
      </trkpt>
      <trkpt lat="43.77662" lon="7.1379">
        <ele>759.80615</ele>
        <time>2019-04-27T09:34:32Z</time>
      </trkpt>
      <trkpt lat="43.77662" lon="7.1379">
        <ele>759.80615</ele>
        <time>2019-04-27T09:34:42Z</time>
      </trkpt>
      <trkpt lat="43.77662" lon="7.1379">
        <ele>759.80615</ele>
        <time>2019-04-27T09:34:46Z</time>
      </trkpt>
      <trkpt lat="43.77662" lon="7.1379">
        <ele>759.80615</ele>
        <time>2019-04-27T09:34:52Z</time>
      </trkpt>
      <trkpt lat="43.77662" lon="7.1379">
        <ele>759.80615</ele>
        <time>2019-04-27T09:34:56Z</time>
      </trkpt>
      <trkpt lat="43.77872" lon="7.13675">
        <ele>782.92316</ele>
        <time>2019-04-27T09:35:02Z</time>
      </trkpt>
      <trkpt lat="43.77882" lon="7.13675">
        <ele>783.34717</ele>
        <time>2019-04-27T09:35:08Z</time>
      </trkpt>
      <trkpt lat="43.77889" lon="7.13671">
        <ele>784.1142</ele>
        <time>2019-04-27T09:35:17Z</time>
      </trkpt>
      <trkpt lat="43.77895" lon="7.13667">
        <ele>784.23816</ele>
        <time>2019-04-27T09:35:22Z</time>
      </trkpt>
      <trkpt lat="43.77901" lon="7.13666">
        <ele>784.16016</ele>
        <time>2019-04-27T09:35:27Z</time>
      </trkpt>
      <trkpt lat="43.77906" lon="7.13665">
        <ele>783.74115</ele>
        <time>2019-04-27T09:35:32Z</time>
      </trkpt>
      <trkpt lat="43.77912" lon="7.13664">
        <ele>784.25116</ele>
        <time>2019-04-27T09:35:37Z</time>
      </trkpt>
      <trkpt lat="43.77918" lon="7.13666">
        <ele>784.2662</ele>
        <time>2019-04-27T09:35:42Z</time>
      </trkpt>
      <trkpt lat="43.77933" lon="7.13665">
        <ele>785.4342</ele>
        <time>2019-04-27T09:35:56Z</time>
      </trkpt>
      <trkpt lat="43.77937" lon="7.13669">
        <ele>785.7892</ele>
        <time>2019-04-27T09:36:01Z</time>
      </trkpt>
      <trkpt lat="43.7794" lon="7.13673">
        <ele>786.0382</ele>
        <time>2019-04-27T09:36:06Z</time>
      </trkpt>
      <trkpt lat="43.77949" lon="7.13678">
        <ele>787.0992</ele>
        <time>2019-04-27T09:36:16Z</time>
      </trkpt>
      <trkpt lat="43.77959" lon="7.13675">
        <ele>789.6592</ele>
        <time>2019-04-27T09:36:31Z</time>
      </trkpt>
      <trkpt lat="43.77953" lon="7.1366">
        <ele>792.4342</ele>
        <time>2019-04-27T09:36:56Z</time>
      </trkpt>
      <trkpt lat="43.77958" lon="7.13643">
        <ele>794.99817</ele>
        <time>2019-04-27T09:37:41Z</time>
      </trkpt>
      <trkpt lat="43.77956" lon="7.13633">
        <ele>796.23517</ele>
        <time>2019-04-27T09:37:52Z</time>
      </trkpt>
      <trkpt lat="43.77956" lon="7.13626">
        <ele>796.6022</ele>
        <time>2019-04-27T09:38:16Z</time>
      </trkpt>
      <trkpt lat="43.77958" lon="7.13617">
        <ele>797.3612</ele>
        <time>2019-04-27T09:43:02Z</time>
      </trkpt>
      <trkpt lat="43.77959" lon="7.13598">
        <ele>798.52216</ele>
        <time>2019-04-27T09:43:21Z</time>
      </trkpt>
      <trkpt lat="43.7796" lon="7.13588">
        <ele>798.5732</ele>
        <time>2019-04-27T09:43:26Z</time>
      </trkpt>
      <trkpt lat="43.77963" lon="7.13583">
        <ele>798.63916</ele>
        <time>2019-04-27T09:43:31Z</time>
      </trkpt>
      <trkpt lat="43.77968" lon="7.13573">
        <ele>798.85815</ele>
        <time>2019-04-27T09:43:41Z</time>
      </trkpt>
      <trkpt lat="43.7797" lon="7.13566">
        <ele>799.1382</ele>
        <time>2019-04-27T09:43:46Z</time>
      </trkpt>
      <trkpt lat="43.77974" lon="7.1356">
        <ele>799.07416</ele>
        <time>2019-04-27T09:43:51Z</time>
      </trkpt>
      <trkpt lat="43.77979" lon="7.1355">
        <ele>799.49817</ele>
        <time>2019-04-27T09:44:01Z</time>
      </trkpt>
      <trkpt lat="43.77984" lon="7.13546">
        <ele>799.9192</ele>
        <time>2019-04-27T09:44:06Z</time>
      </trkpt>
      <trkpt lat="43.7799" lon="7.13533">
        <ele>799.9262</ele>
        <time>2019-04-27T09:44:21Z</time>
      </trkpt>
      <trkpt lat="43.77997" lon="7.13527">
        <ele>800.8312</ele>
        <time>2019-04-27T09:44:31Z</time>
      </trkpt>
      <trkpt lat="43.78001" lon="7.13524">
        <ele>801.3022</ele>
        <time>2019-04-27T09:44:36Z</time>
      </trkpt>
      <trkpt lat="43.78011" lon="7.13516">
        <ele>802.01715</ele>
        <time>2019-04-27T09:44:46Z</time>
      </trkpt>
      <trkpt lat="43.78017" lon="7.13508">
        <ele>802.64716</ele>
        <time>2019-04-27T09:44:56Z</time>
      </trkpt>
      <trkpt lat="43.78023" lon="7.13505">
        <ele>803.1152</ele>
        <time>2019-04-27T09:45:01Z</time>
      </trkpt>
      <trkpt lat="43.78027" lon="7.13503">
        <ele>803.5942</ele>
        <time>2019-04-27T09:45:06Z</time>
      </trkpt>
      <trkpt lat="43.78033" lon="7.13504">
        <ele>803.94916</ele>
        <time>2019-04-27T09:45:11Z</time>
      </trkpt>
      <trkpt lat="43.78039" lon="7.13504">
        <ele>804.26117</ele>
        <time>2019-04-27T09:45:16Z</time>
      </trkpt>
      <trkpt lat="43.78044" lon="7.13501">
        <ele>804.53015</ele>
        <time>2019-04-27T09:45:21Z</time>
      </trkpt>
      <trkpt lat="43.7805" lon="7.13501">
        <ele>805.6902</ele>
        <time>2019-04-27T09:45:31Z</time>
      </trkpt>
      <trkpt lat="43.78054" lon="7.13505">
        <ele>806.1272</ele>
        <time>2019-04-27T09:45:36Z</time>
      </trkpt>
      <trkpt lat="43.78057" lon="7.1351">
        <ele>806.0372</ele>
        <time>2019-04-27T09:45:41Z</time>
      </trkpt>
      <trkpt lat="43.78066" lon="7.1351">
        <ele>806.50116</ele>
        <time>2019-04-27T09:45:51Z</time>
      </trkpt>
      <trkpt lat="43.78071" lon="7.13509">
        <ele>806.6842</ele>
        <time>2019-04-27T09:45:56Z</time>
      </trkpt>
      <trkpt lat="43.78077" lon="7.13507">
        <ele>807.3402</ele>
        <time>2019-04-27T09:46:01Z</time>
      </trkpt>
      <trkpt lat="43.78083" lon="7.13504">
        <ele>807.2762</ele>
        <time>2019-04-27T09:46:11Z</time>
      </trkpt>
      <trkpt lat="43.78088" lon="7.135">
        <ele>807.4862</ele>
        <time>2019-04-27T09:46:16Z</time>
      </trkpt>
      <trkpt lat="43.78096" lon="7.13493">
        <ele>807.53217</ele>
        <time>2019-04-27T09:46:26Z</time>
      </trkpt>
      <trkpt lat="43.781" lon="7.1349">
        <ele>807.8042</ele>
        <time>2019-04-27T09:46:31Z</time>
      </trkpt>
      <trkpt lat="43.78105" lon="7.13488">
        <ele>807.51416</ele>
        <time>2019-04-27T09:46:36Z</time>
      </trkpt>
      <trkpt lat="43.78115" lon="7.13481">
        <ele>808.1582</ele>
        <time>2019-04-27T09:46:46Z</time>
      </trkpt>
      <trkpt lat="43.78119" lon="7.13479">
        <ele>808.43115</ele>
        <time>2019-04-27T09:46:51Z</time>
      </trkpt>
      <trkpt lat="43.78124" lon="7.13476">
        <ele>809.2422</ele>
        <time>2019-04-27T09:46:56Z</time>
      </trkpt>
      <trkpt lat="43.78126" lon="7.1347">
        <ele>810.1402</ele>
        <time>2019-04-27T09:47:01Z</time>
      </trkpt>
      <trkpt lat="43.78125" lon="7.13464">
        <ele>811.38617</ele>
        <time>2019-04-27T09:47:11Z</time>
      </trkpt>
      <trkpt lat="43.78124" lon="7.13455">
        <ele>812.3012</ele>
        <time>2019-04-27T09:47:16Z</time>
      </trkpt>
      <trkpt lat="43.78136" lon="7.13454">
        <ele>814.2262</ele>
        <time>2019-04-27T09:47:32Z</time>
      </trkpt>
      <trkpt lat="43.78143" lon="7.1345">
        <ele>816.28015</ele>
        <time>2019-04-27T09:47:47Z</time>
      </trkpt>
      <trkpt lat="43.78143" lon="7.13444">
        <ele>817.1192</ele>
        <time>2019-04-27T09:47:52Z</time>
      </trkpt>
      <trkpt lat="43.7815" lon="7.13432">
        <ele>818.1202</ele>
        <time>2019-04-27T09:48:01Z</time>
      </trkpt>
      <trkpt lat="43.78154" lon="7.13428">
        <ele>819.77716</ele>
        <time>2019-04-27T09:48:11Z</time>
      </trkpt>
      <trkpt lat="43.78157" lon="7.13422">
        <ele>820.4422</ele>
        <time>2019-04-27T09:48:16Z</time>
      </trkpt>
      <trkpt lat="43.78164" lon="7.13416">
        <ele>820.92316</ele>
        <time>2019-04-27T09:48:26Z</time>
      </trkpt>
      <trkpt lat="43.78168" lon="7.13411">
        <ele>821.39417</ele>
        <time>2019-04-27T09:48:31Z</time>
      </trkpt>
      <trkpt lat="43.78172" lon="7.13407">
        <ele>821.6152</ele>
        <time>2019-04-27T09:48:36Z</time>
      </trkpt>
      <trkpt lat="43.78178" lon="7.13406">
        <ele>822.5332</ele>
        <time>2019-04-27T09:48:41Z</time>
      </trkpt>
      <trkpt lat="43.78186" lon="7.13406">
        <ele>824.2732</ele>
        <time>2019-04-27T09:48:51Z</time>
      </trkpt>
      <trkpt lat="43.78193" lon="7.13407">
        <ele>825.5702</ele>
        <time>2019-04-27T09:49:01Z</time>
      </trkpt>
      <trkpt lat="43.78201" lon="7.13404">
        <ele>826.7162</ele>
        <time>2019-04-27T09:49:11Z</time>
      </trkpt>
      <trkpt lat="43.78208" lon="7.13398">
        <ele>827.0992</ele>
        <time>2019-04-27T09:49:21Z</time>
      </trkpt>
      <trkpt lat="43.78214" lon="7.13394">
        <ele>827.8052</ele>
        <time>2019-04-27T09:49:26Z</time>
      </trkpt>
      <trkpt lat="43.78219" lon="7.13394">
        <ele>828.2652</ele>
        <time>2019-04-27T09:49:31Z</time>
      </trkpt>
      <trkpt lat="43.78224" lon="7.13393">
        <ele>828.7262</ele>
        <time>2019-04-27T09:49:36Z</time>
      </trkpt>
      <trkpt lat="43.78229" lon="7.13394">
        <ele>829.7892</ele>
        <time>2019-04-27T09:49:46Z</time>
      </trkpt>
      <trkpt lat="43.78234" lon="7.13393">
        <ele>829.63416</ele>
        <time>2019-04-27T09:49:51Z</time>
      </trkpt>
      <trkpt lat="43.78243" lon="7.1339">
        <ele>830.6722</ele>
        <time>2019-04-27T09:50:01Z</time>
      </trkpt>
      <trkpt lat="43.78247" lon="7.1339">
        <ele>831.2942</ele>
        <time>2019-04-27T09:50:06Z</time>
      </trkpt>
      <trkpt lat="43.78253" lon="7.13388">
        <ele>831.5892</ele>
        <time>2019-04-27T09:50:11Z</time>
      </trkpt>
      <trkpt lat="43.78264" lon="7.13388">
        <ele>831.96716</ele>
        <time>2019-04-27T09:50:21Z</time>
      </trkpt>
      <trkpt lat="43.78271" lon="7.13389">
        <ele>832.6282</ele>
        <time>2019-04-27T09:50:31Z</time>
      </trkpt>
      <trkpt lat="43.78278" lon="7.13392">
        <ele>833.5602</ele>
        <time>2019-04-27T09:50:41Z</time>
      </trkpt>
      <trkpt lat="43.78285" lon="7.1339">
        <ele>833.4602</ele>
        <time>2019-04-27T09:50:46Z</time>
      </trkpt>
      <trkpt lat="43.78289" lon="7.13394">
        <ele>833.77716</ele>
        <time>2019-04-27T09:50:51Z</time>
      </trkpt>
      <trkpt lat="43.78298" lon="7.13396">
        <ele>834.26416</ele>
        <time>2019-04-27T09:51:01Z</time>
      </trkpt>
      <trkpt lat="43.78302" lon="7.13397">
        <ele>834.05615</ele>
        <time>2019-04-27T09:51:06Z</time>
      </trkpt>
      <trkpt lat="43.78311" lon="7.13397">
        <ele>834.3772</ele>
        <time>2019-04-27T09:51:16Z</time>
      </trkpt>
      <trkpt lat="43.78319" lon="7.13398">
        <ele>834.6762</ele>
        <time>2019-04-27T09:51:26Z</time>
      </trkpt>
      <trkpt lat="43.78326" lon="7.13399">
        <ele>834.4642</ele>
        <time>2019-04-27T09:51:31Z</time>
      </trkpt>
      <trkpt lat="43.78332" lon="7.13399">
        <ele>835.1152</ele>
        <time>2019-04-27T09:51:36Z</time>
      </trkpt>
      <trkpt lat="43.7834" lon="7.13399">
        <ele>835.49615</ele>
        <time>2019-04-27T09:51:46Z</time>
      </trkpt>
      <trkpt lat="43.78346" lon="7.134">
        <ele>835.81915</ele>
        <time>2019-04-27T09:51:51Z</time>
      </trkpt>
      <trkpt lat="43.7835" lon="7.13399">
        <ele>836.0412</ele>
        <time>2019-04-27T09:51:56Z</time>
      </trkpt>
      <trkpt lat="43.78355" lon="7.13397">
        <ele>836.48016</ele>
        <time>2019-04-27T09:52:01Z</time>
      </trkpt>
      <trkpt lat="43.78361" lon="7.13396">
        <ele>836.94116</ele>
        <time>2019-04-27T09:52:06Z</time>
      </trkpt>
      <trkpt lat="43.78368" lon="7.13394">
        <ele>836.7992</ele>
        <time>2019-04-27T09:52:16Z</time>
      </trkpt>
      <trkpt lat="43.78375" lon="7.13394">
        <ele>837.05615</ele>
        <time>2019-04-27T09:52:21Z</time>
      </trkpt>
      <trkpt lat="43.78379" lon="7.13388">
        <ele>837.8052</ele>
        <time>2019-04-27T09:52:31Z</time>
      </trkpt>
      <trkpt lat="43.78388" lon="7.13387">
        <ele>838.67316</ele>
        <time>2019-04-27T09:53:47Z</time>
      </trkpt>
      <trkpt lat="43.78394" lon="7.13385">
        <ele>838.7442</ele>
        <time>2019-04-27T09:53:52Z</time>
      </trkpt>
      <trkpt lat="43.784" lon="7.1338">
        <ele>838.9062</ele>
        <time>2019-04-27T09:53:57Z</time>
      </trkpt>
      <trkpt lat="43.78404" lon="7.13377">
        <ele>838.7022</ele>
        <time>2019-04-27T09:54:02Z</time>
      </trkpt>
      <trkpt lat="43.78409" lon="7.13373">
        <ele>839.0392</ele>
        <time>2019-04-27T09:54:07Z</time>
      </trkpt>
      <trkpt lat="43.78414" lon="7.13368">
        <ele>839.21216</ele>
        <time>2019-04-27T09:54:12Z</time>
      </trkpt>
      <trkpt lat="43.7842" lon="7.13361">
        <ele>839.2362</ele>
        <time>2019-04-27T09:54:22Z</time>
      </trkpt>
      <trkpt lat="43.78423" lon="7.13355">
        <ele>839.28015</ele>
        <time>2019-04-27T09:54:27Z</time>
      </trkpt>
      <trkpt lat="43.78429" lon="7.13347">
        <ele>839.09717</ele>
        <time>2019-04-27T09:54:37Z</time>
      </trkpt>
      <trkpt lat="43.78435" lon="7.13347">
        <ele>838.9952</ele>
        <time>2019-04-27T09:54:42Z</time>
      </trkpt>
      <trkpt lat="43.78439" lon="7.13345">
        <ele>838.9172</ele>
        <time>2019-04-27T09:54:47Z</time>
      </trkpt>
      <trkpt lat="43.78443" lon="7.13342">
        <ele>839.3432</ele>
        <time>2019-04-27T09:54:52Z</time>
      </trkpt>
      <trkpt lat="43.78449" lon="7.13341">
        <ele>839.09717</ele>
        <time>2019-04-27T09:54:57Z</time>
      </trkpt>
      <trkpt lat="43.78455" lon="7.1334">
        <ele>839.1122</ele>
        <time>2019-04-27T09:55:02Z</time>
      </trkpt>
      <trkpt lat="43.78465" lon="7.13334">
        <ele>839.38416</ele>
        <time>2019-04-27T09:55:12Z</time>
      </trkpt>
      <trkpt lat="43.7847" lon="7.13336">
        <ele>839.2322</ele>
        <time>2019-04-27T09:55:17Z</time>
      </trkpt>
      <trkpt lat="43.7848" lon="7.13342">
        <ele>839.5162</ele>
        <time>2019-04-27T09:55:27Z</time>
      </trkpt>
      <trkpt lat="43.78487" lon="7.13345">
        <ele>840.0852</ele>
        <time>2019-04-27T09:55:37Z</time>
      </trkpt>
      <trkpt lat="43.78496" lon="7.13343">
        <ele>840.83417</ele>
        <time>2019-04-27T09:55:47Z</time>
      </trkpt>
      <trkpt lat="43.78504" lon="7.13338">
        <ele>841.0052</ele>
        <time>2019-04-27T09:55:57Z</time>
      </trkpt>
      <trkpt lat="43.78518" lon="7.13332">
        <ele>841.22516</ele>
        <time>2019-04-27T09:56:06Z</time>
      </trkpt>
      <trkpt lat="43.78528" lon="7.13324">
        <ele>841.7142</ele>
        <time>2019-04-27T09:56:16Z</time>
      </trkpt>
      <trkpt lat="43.78532" lon="7.13322">
        <ele>841.8962</ele>
        <time>2019-04-27T09:56:21Z</time>
      </trkpt>
      <trkpt lat="43.78538" lon="7.13324">
        <ele>841.47516</ele>
        <time>2019-04-27T09:56:26Z</time>
      </trkpt>
      <trkpt lat="43.78544" lon="7.13322">
        <ele>841.4502</ele>
        <time>2019-04-27T09:56:31Z</time>
      </trkpt>
      <trkpt lat="43.78553" lon="7.13321">
        <ele>841.6142</ele>
        <time>2019-04-27T09:56:41Z</time>
      </trkpt>
      <trkpt lat="43.78558" lon="7.1332">
        <ele>842.1642</ele>
        <time>2019-04-27T09:56:46Z</time>
      </trkpt>
      <trkpt lat="43.78567" lon="7.1332">
        <ele>841.9122</ele>
        <time>2019-04-27T09:56:56Z</time>
      </trkpt>
      <trkpt lat="43.78573" lon="7.13317">
        <ele>842.17816</ele>
        <time>2019-04-27T09:57:01Z</time>
      </trkpt>
      <trkpt lat="43.78579" lon="7.13315">
        <ele>841.3572</ele>
        <time>2019-04-27T09:57:06Z</time>
      </trkpt>
      <trkpt lat="43.7859" lon="7.13316">
        <ele>841.8252</ele>
        <time>2019-04-27T09:57:16Z</time>
      </trkpt>
      <trkpt lat="43.78595" lon="7.13317">
        <ele>842.5652</ele>
        <time>2019-04-27T09:57:21Z</time>
      </trkpt>
      <trkpt lat="43.78602" lon="7.13319">
        <ele>842.75616</ele>
        <time>2019-04-27T09:57:26Z</time>
      </trkpt>
      <trkpt lat="43.78608" lon="7.13322">
        <ele>842.14215</ele>
        <time>2019-04-27T09:57:31Z</time>
      </trkpt>
      <trkpt lat="43.78613" lon="7.1332">
        <ele>842.50116</ele>
        <time>2019-04-27T09:57:36Z</time>
      </trkpt>
      <trkpt lat="43.78619" lon="7.1332">
        <ele>842.3952</ele>
        <time>2019-04-27T09:57:46Z</time>
      </trkpt>
      <trkpt lat="43.78624" lon="7.13319">
        <ele>842.8012</ele>
        <time>2019-04-27T09:57:51Z</time>
      </trkpt>
      <trkpt lat="43.78635" lon="7.13315">
        <ele>843.39716</ele>
        <time>2019-04-27T09:58:01Z</time>
      </trkpt>
      <trkpt lat="43.78647" lon="7.13308">
        <ele>843.2242</ele>
        <time>2019-04-27T09:58:12Z</time>
      </trkpt>
      <trkpt lat="43.78651" lon="7.13305">
        <ele>843.53217</ele>
        <time>2019-04-27T09:58:17Z</time>
      </trkpt>
      <trkpt lat="43.78657" lon="7.13305">
        <ele>843.23315</ele>
        <time>2019-04-27T09:58:22Z</time>
      </trkpt>
      <trkpt lat="43.78664" lon="7.13306">
        <ele>843.19916</ele>
        <time>2019-04-27T09:58:27Z</time>
      </trkpt>
      <trkpt lat="43.7867" lon="7.13309">
        <ele>843.18616</ele>
        <time>2019-04-27T09:58:32Z</time>
      </trkpt>
      <trkpt lat="43.78676" lon="7.1331">
        <ele>843.2242</ele>
        <time>2019-04-27T09:58:37Z</time>
      </trkpt>
      <trkpt lat="43.78687" lon="7.13309">
        <ele>842.5032</ele>
        <time>2019-04-27T09:58:47Z</time>
      </trkpt>
      <trkpt lat="43.78692" lon="7.13307">
        <ele>842.11615</ele>
        <time>2019-04-27T09:58:52Z</time>
      </trkpt>
      <trkpt lat="43.78698" lon="7.13309">
        <ele>842.25916</ele>
        <time>2019-04-27T09:58:57Z</time>
      </trkpt>
      <trkpt lat="43.78703" lon="7.13312">
        <ele>842.0802</ele>
        <time>2019-04-27T09:59:02Z</time>
      </trkpt>
      <trkpt lat="43.78707" lon="7.13318">
        <ele>842.6432</ele>
        <time>2019-04-27T09:59:12Z</time>
      </trkpt>
      <trkpt lat="43.78709" lon="7.13325">
        <ele>843.37915</ele>
        <time>2019-04-27T09:59:17Z</time>
      </trkpt>
      <trkpt lat="43.78714" lon="7.13323">
        <ele>843.5852</ele>
        <time>2019-04-27T09:59:27Z</time>
      </trkpt>
      <trkpt lat="43.78717" lon="7.13317">
        <ele>844.1172</ele>
        <time>2019-04-27T09:59:32Z</time>
      </trkpt>
      <trkpt lat="43.78724" lon="7.13312">
        <ele>844.69617</ele>
        <time>2019-04-27T09:59:37Z</time>
      </trkpt>
      <trkpt lat="43.78729" lon="7.13313">
        <ele>845.2152</ele>
        <time>2019-04-27T09:59:42Z</time>
      </trkpt>
      <trkpt lat="43.78733" lon="7.13317">
        <ele>845.5502</ele>
        <time>2019-04-27T09:59:47Z</time>
      </trkpt>
      <trkpt lat="43.78738" lon="7.13321">
        <ele>846.00916</ele>
        <time>2019-04-27T09:59:53Z</time>
      </trkpt>
      <trkpt lat="43.78742" lon="7.13329">
        <ele>846.6612</ele>
        <time>2019-04-27T10:00:02Z</time>
      </trkpt>
      <trkpt lat="43.78748" lon="7.13331">
        <ele>847.36816</ele>
        <time>2019-04-27T10:00:07Z</time>
      </trkpt>
      <trkpt lat="43.78754" lon="7.13332">
        <ele>847.6772</ele>
        <time>2019-04-27T10:00:12Z</time>
      </trkpt>
      <trkpt lat="43.78764" lon="7.1333">
        <ele>848.8122</ele>
        <time>2019-04-27T10:00:22Z</time>
      </trkpt>
      <trkpt lat="43.78769" lon="7.13329">
        <ele>849.18115</ele>
        <time>2019-04-27T10:00:27Z</time>
      </trkpt>
      <trkpt lat="43.78778" lon="7.13326">
        <ele>849.81915</ele>
        <time>2019-04-27T10:00:37Z</time>
      </trkpt>
      <trkpt lat="43.78782" lon="7.13323">
        <ele>849.90216</ele>
        <time>2019-04-27T10:00:42Z</time>
      </trkpt>
      <trkpt lat="43.78788" lon="7.13323">
        <ele>849.91516</ele>
        <time>2019-04-27T10:00:47Z</time>
      </trkpt>
      <trkpt lat="43.78794" lon="7.13321">
        <ele>849.8512</ele>
        <time>2019-04-27T10:00:52Z</time>
      </trkpt>
      <trkpt lat="43.788" lon="7.13318">
        <ele>850.03516</ele>
        <time>2019-04-27T10:00:57Z</time>
      </trkpt>
      <trkpt lat="43.78809" lon="7.13312">
        <ele>850.24817</ele>
        <time>2019-04-27T10:01:07Z</time>
      </trkpt>
      <trkpt lat="43.78816" lon="7.13309">
        <ele>850.69415</ele>
        <time>2019-04-27T10:01:12Z</time>
      </trkpt>
      <trkpt lat="43.78819" lon="7.13304">
        <ele>850.81616</ele>
        <time>2019-04-27T10:01:17Z</time>
      </trkpt>
      <trkpt lat="43.78825" lon="7.133">
        <ele>850.67316</ele>
        <time>2019-04-27T10:01:22Z</time>
      </trkpt>
      <trkpt lat="43.7883" lon="7.13293">
        <ele>850.8312</ele>
        <time>2019-04-27T10:01:27Z</time>
      </trkpt>
      <trkpt lat="43.78834" lon="7.13288">
        <ele>850.8182</ele>
        <time>2019-04-27T10:01:32Z</time>
      </trkpt>
      <trkpt lat="43.78838" lon="7.13281">
        <ele>849.94116</ele>
        <time>2019-04-27T10:01:42Z</time>
      </trkpt>
      <trkpt lat="43.78841" lon="7.13272">
        <ele>849.6092</ele>
        <time>2019-04-27T10:01:52Z</time>
      </trkpt>
      <trkpt lat="43.78846" lon="7.13265">
        <ele>849.2702</ele>
        <time>2019-04-27T10:01:57Z</time>
      </trkpt>
      <trkpt lat="43.78848" lon="7.13259">
        <ele>849.3912</ele>
        <time>2019-04-27T10:02:02Z</time>
      </trkpt>
      <trkpt lat="43.78855" lon="7.13258">
        <ele>849.33417</ele>
        <time>2019-04-27T10:02:12Z</time>
      </trkpt>
      <trkpt lat="43.7886" lon="7.13255">
        <ele>849.13416</ele>
        <time>2019-04-27T10:02:17Z</time>
      </trkpt>
      <trkpt lat="43.78864" lon="7.13252">
        <ele>849.1412</ele>
        <time>2019-04-27T10:02:22Z</time>
      </trkpt>
      <trkpt lat="43.78869" lon="7.1325">
        <ele>849.41815</ele>
        <time>2019-04-27T10:02:27Z</time>
      </trkpt>
      <trkpt lat="43.78873" lon="7.13245">
        <ele>849.3382</ele>
        <time>2019-04-27T10:02:32Z</time>
      </trkpt>
      <trkpt lat="43.78879" lon="7.13242">
        <ele>849.43616</ele>
        <time>2019-04-27T10:02:37Z</time>
      </trkpt>
      <trkpt lat="43.78883" lon="7.13238">
        <ele>849.2142</ele>
        <time>2019-04-27T10:02:41Z</time>
      </trkpt>
      <trkpt lat="43.78888" lon="7.13235">
        <ele>850.4522</ele>
        <time>2019-04-27T10:02:46Z</time>
      </trkpt>
      <trkpt lat="43.78892" lon="7.13233">
        <ele>850.5412</ele>
        <time>2019-04-27T10:02:51Z</time>
      </trkpt>
      <trkpt lat="43.78896" lon="7.13232">
        <ele>849.0852</ele>
        <time>2019-04-27T10:03:00Z</time>
      </trkpt>
      <trkpt lat="43.78903" lon="7.13229">
        <ele>849.2762</ele>
        <time>2019-04-27T10:03:06Z</time>
      </trkpt>
      <trkpt lat="43.78911" lon="7.13227">
        <ele>849.50916</ele>
        <time>2019-04-27T10:03:11Z</time>
      </trkpt>
      <trkpt lat="43.7892" lon="7.13226">
        <ele>849.9792</ele>
        <time>2019-04-27T10:03:21Z</time>
      </trkpt>
      <trkpt lat="43.78933" lon="7.13219">
        <ele>850.3432</ele>
        <time>2019-04-27T10:03:31Z</time>
      </trkpt>
      <trkpt lat="43.78942" lon="7.13213">
        <ele>851.1282</ele>
        <time>2019-04-27T10:03:41Z</time>
      </trkpt>
      <trkpt lat="43.78949" lon="7.132">
        <ele>851.74115</ele>
        <time>2019-04-27T10:03:51Z</time>
      </trkpt>
      <trkpt lat="43.78953" lon="7.13196">
        <ele>852.04517</ele>
        <time>2019-04-27T10:03:55Z</time>
      </trkpt>
      <trkpt lat="43.78959" lon="7.13191">
        <ele>852.46716</ele>
        <time>2019-04-27T10:04:02Z</time>
      </trkpt>
      <trkpt lat="43.78962" lon="7.13186">
        <ele>852.52216</ele>
        <time>2019-04-27T10:04:07Z</time>
      </trkpt>
      <trkpt lat="43.78965" lon="7.13181">
        <ele>852.4782</ele>
        <time>2019-04-27T10:04:12Z</time>
      </trkpt>
      <trkpt lat="43.7897" lon="7.13172">
        <ele>851.9452</ele>
        <time>2019-04-27T10:04:22Z</time>
      </trkpt>
      <trkpt lat="43.78978" lon="7.13164">
        <ele>851.4212</ele>
        <time>2019-04-27T10:04:32Z</time>
      </trkpt>
      <trkpt lat="43.78981" lon="7.1316">
        <ele>850.9842</ele>
        <time>2019-04-27T10:04:37Z</time>
      </trkpt>
      <trkpt lat="43.78986" lon="7.13154">
        <ele>850.60016</ele>
        <time>2019-04-27T10:04:42Z</time>
      </trkpt>
      <trkpt lat="43.78991" lon="7.13152">
        <ele>850.0752</ele>
        <time>2019-04-27T10:04:47Z</time>
      </trkpt>
      <trkpt lat="43.78996" lon="7.13146">
        <ele>849.6792</ele>
        <time>2019-04-27T10:04:52Z</time>
      </trkpt>
      <trkpt lat="43.79" lon="7.13143">
        <ele>849.3072</ele>
        <time>2019-04-27T10:04:57Z</time>
      </trkpt>
      <trkpt lat="43.79004" lon="7.13138">
        <ele>849.1562</ele>
        <time>2019-04-27T10:05:02Z</time>
      </trkpt>
      <trkpt lat="43.79012" lon="7.13133">
        <ele>848.7322</ele>
        <time>2019-04-27T10:05:12Z</time>
      </trkpt>
      <trkpt lat="43.79018" lon="7.13126">
        <ele>848.8432</ele>
        <time>2019-04-27T10:05:17Z</time>
      </trkpt>
      <trkpt lat="43.79023" lon="7.13121">
        <ele>849.0252</ele>
        <time>2019-04-27T10:05:22Z</time>
      </trkpt>
      <trkpt lat="43.79026" lon="7.13117">
        <ele>848.9812</ele>
        <time>2019-04-27T10:05:27Z</time>
      </trkpt>
      <trkpt lat="43.7903" lon="7.13113">
        <ele>847.95416</ele>
        <time>2019-04-27T10:05:51Z</time>
      </trkpt>
      <trkpt lat="43.79037" lon="7.13093">
        <ele>850.18317</ele>
        <time>2019-04-27T10:08:16Z</time>
      </trkpt>
      <trkpt lat="43.7904" lon="7.13088">
        <ele>850.8532</ele>
        <time>2019-04-27T10:08:21Z</time>
      </trkpt>
      <trkpt lat="43.79046" lon="7.13087">
        <ele>852.0312</ele>
        <time>2019-04-27T10:08:31Z</time>
      </trkpt>
      <trkpt lat="43.79057" lon="7.13079">
        <ele>853.43616</ele>
        <time>2019-04-27T10:08:47Z</time>
      </trkpt>
      <trkpt lat="43.7906" lon="7.13075">
        <ele>854.19116</ele>
        <time>2019-04-27T10:08:52Z</time>
      </trkpt>
      <trkpt lat="43.79064" lon="7.13071">
        <ele>855.0232</ele>
        <time>2019-04-27T10:09:02Z</time>
      </trkpt>
      <trkpt lat="43.79069" lon="7.13064">
        <ele>856.5552</ele>
        <time>2019-04-27T10:09:12Z</time>
      </trkpt>
      <trkpt lat="43.79078" lon="7.13065">
        <ele>857.5602</ele>
        <time>2019-04-27T10:09:22Z</time>
      </trkpt>
      <trkpt lat="43.79083" lon="7.13068">
        <ele>858.56616</ele>
        <time>2019-04-27T10:09:32Z</time>
      </trkpt>
      <trkpt lat="43.79091" lon="7.13066">
        <ele>858.86615</ele>
        <time>2019-04-27T10:09:42Z</time>
      </trkpt>
      <trkpt lat="43.79093" lon="7.13061">
        <ele>859.73016</ele>
        <time>2019-04-27T10:09:47Z</time>
      </trkpt>
      <trkpt lat="43.791" lon="7.13057">
        <ele>861.13116</ele>
        <time>2019-04-27T10:10:02Z</time>
      </trkpt>
      <trkpt lat="43.79105" lon="7.13059">
        <ele>861.88416</ele>
        <time>2019-04-27T10:10:07Z</time>
      </trkpt>
      <trkpt lat="43.7911" lon="7.1306">
        <ele>862.3952</ele>
        <time>2019-04-27T10:10:12Z</time>
      </trkpt>
      <trkpt lat="43.79114" lon="7.13065">
        <ele>863.56116</ele>
        <time>2019-04-27T10:10:22Z</time>
      </trkpt>
      <trkpt lat="43.79121" lon="7.13071">
        <ele>864.2632</ele>
        <time>2019-04-27T10:10:32Z</time>
      </trkpt>
      <trkpt lat="43.79131" lon="7.13081">
        <ele>866.1742</ele>
        <time>2019-04-27T10:10:47Z</time>
      </trkpt>
      <trkpt lat="43.79138" lon="7.13082">
        <ele>867.27216</ele>
        <time>2019-04-27T10:10:57Z</time>
      </trkpt>
      <trkpt lat="43.79143" lon="7.13071">
        <ele>869.12317</ele>
        <time>2019-04-27T10:11:06Z</time>
      </trkpt>
      <trkpt lat="43.79147" lon="7.1306">
        <ele>870.9772</ele>
        <time>2019-04-27T10:11:16Z</time>
      </trkpt>
      <trkpt lat="43.79149" lon="7.13053">
        <ele>871.91516</ele>
        <time>2019-04-27T10:11:26Z</time>
      </trkpt>
      <trkpt lat="43.7915" lon="7.13047">
        <ele>872.5732</ele>
        <time>2019-04-27T10:11:31Z</time>
      </trkpt>
      <trkpt lat="43.79153" lon="7.13041">
        <ele>873.0912</ele>
        <time>2019-04-27T10:11:36Z</time>
      </trkpt>
      <trkpt lat="43.79154" lon="7.13035">
        <ele>873.6582</ele>
        <time>2019-04-27T10:11:41Z</time>
      </trkpt>
      <trkpt lat="43.79155" lon="7.13027">
        <ele>874.39417</ele>
        <time>2019-04-27T10:11:46Z</time>
      </trkpt>
      <trkpt lat="43.79159" lon="7.1302">
        <ele>875.38116</ele>
        <time>2019-04-27T10:11:56Z</time>
      </trkpt>
      <trkpt lat="43.79161" lon="7.13009">
        <ele>876.3782</ele>
        <time>2019-04-27T10:12:06Z</time>
      </trkpt>
      <trkpt lat="43.79163" lon="7.13002">
        <ele>876.6092</ele>
        <time>2019-04-27T10:12:11Z</time>
      </trkpt>
      <trkpt lat="43.79165" lon="7.12996">
        <ele>877.1032</ele>
        <time>2019-04-27T10:12:16Z</time>
      </trkpt>
      <trkpt lat="43.79168" lon="7.12984">
        <ele>877.8692</ele>
        <time>2019-04-27T10:12:26Z</time>
      </trkpt>
      <trkpt lat="43.7917" lon="7.12977">
        <ele>878.3232</ele>
        <time>2019-04-27T10:12:31Z</time>
      </trkpt>
      <trkpt lat="43.79173" lon="7.12967">
        <ele>878.9382</ele>
        <time>2019-04-27T10:12:41Z</time>
      </trkpt>
      <trkpt lat="43.79173" lon="7.1296">
        <ele>878.8072</ele>
        <time>2019-04-27T10:12:46Z</time>
      </trkpt>
      <trkpt lat="43.79176" lon="7.12954">
        <ele>880.58716</ele>
        <time>2019-04-27T10:12:56Z</time>
      </trkpt>
      <trkpt lat="43.79178" lon="7.12941">
        <ele>881.84717</ele>
        <time>2019-04-27T10:13:06Z</time>
      </trkpt>
      <trkpt lat="43.79181" lon="7.12932">
        <ele>883.5812</ele>
        <time>2019-04-27T10:13:16Z</time>
      </trkpt>
      <trkpt lat="43.79184" lon="7.12924">
        <ele>885.61816</ele>
        <time>2019-04-27T10:13:26Z</time>
      </trkpt>
      <trkpt lat="43.79188" lon="7.12912">
        <ele>889.4612</ele>
        <time>2019-04-27T10:13:51Z</time>
      </trkpt>
      <trkpt lat="43.79188" lon="7.12905">
        <ele>890.5992</ele>
        <time>2019-04-27T10:13:56Z</time>
      </trkpt>
      <trkpt lat="43.79198" lon="7.12869">
        <ele>899.9692</ele>
        <time>2019-04-27T10:14:46Z</time>
      </trkpt>
      <trkpt lat="43.79202" lon="7.12857">
        <ele>904.23517</ele>
        <time>2019-04-27T10:15:07Z</time>
      </trkpt>
      <trkpt lat="43.79212" lon="7.12835">
        <ele>910.70715</ele>
        <time>2019-04-27T10:15:36Z</time>
      </trkpt>
      <trkpt lat="43.79214" lon="7.12825">
        <ele>913.2052</ele>
        <time>2019-04-27T10:15:51Z</time>
      </trkpt>
      <trkpt lat="43.79217" lon="7.12807">
        <ele>915.6402</ele>
        <time>2019-04-27T10:16:31Z</time>
      </trkpt>
      <trkpt lat="43.79221" lon="7.12801">
        <ele>916.1612</ele>
        <time>2019-04-27T10:16:35Z</time>
      </trkpt>
      <trkpt lat="43.79223" lon="7.12794">
        <ele>917.9342</ele>
        <time>2019-04-27T10:16:45Z</time>
      </trkpt>
      <trkpt lat="43.79224" lon="7.12786">
        <ele>918.56616</ele>
        <time>2019-04-27T10:16:51Z</time>
      </trkpt>
      <trkpt lat="43.79226" lon="7.12776">
        <ele>920.8402</ele>
        <time>2019-04-27T10:17:01Z</time>
      </trkpt>
      <trkpt lat="43.79228" lon="7.1277">
        <ele>921.62616</ele>
        <time>2019-04-27T10:17:06Z</time>
      </trkpt>
      <trkpt lat="43.79229" lon="7.12759">
        <ele>923.1322</ele>
        <time>2019-04-27T10:17:16Z</time>
      </trkpt>
      <trkpt lat="43.79232" lon="7.12752">
        <ele>924.9402</ele>
        <time>2019-04-27T10:17:26Z</time>
      </trkpt>
      <trkpt lat="43.79237" lon="7.12749">
        <ele>927.3852</ele>
        <time>2019-04-27T10:17:36Z</time>
      </trkpt>
      <trkpt lat="43.7924" lon="7.1274">
        <ele>929.31915</ele>
        <time>2019-04-27T10:17:46Z</time>
      </trkpt>
      <trkpt lat="43.79242" lon="7.12721">
        <ele>932.34717</ele>
        <time>2019-04-27T10:18:12Z</time>
      </trkpt>
      <trkpt lat="43.79244" lon="7.12712">
        <ele>934.1482</ele>
        <time>2019-04-27T10:18:21Z</time>
      </trkpt>
      <trkpt lat="43.79245" lon="7.12702">
        <ele>935.0512</ele>
        <time>2019-04-27T10:18:26Z</time>
      </trkpt>
      <trkpt lat="43.79247" lon="7.12691">
        <ele>935.45416</ele>
        <time>2019-04-27T10:18:36Z</time>
      </trkpt>
      <trkpt lat="43.79246" lon="7.12684">
        <ele>936.62915</ele>
        <time>2019-04-27T10:18:41Z</time>
      </trkpt>
      <trkpt lat="43.79248" lon="7.12676">
        <ele>937.3042</ele>
        <time>2019-04-27T10:18:46Z</time>
      </trkpt>
      <trkpt lat="43.79251" lon="7.12668">
        <ele>937.39417</ele>
        <time>2019-04-27T10:18:51Z</time>
      </trkpt>
      <trkpt lat="43.79253" lon="7.12655">
        <ele>938.3382</ele>
        <time>2019-04-27T10:19:01Z</time>
      </trkpt>
      <trkpt lat="43.79258" lon="7.12641">
        <ele>939.48816</ele>
        <time>2019-04-27T10:19:11Z</time>
      </trkpt>
      <trkpt lat="43.79259" lon="7.12633">
        <ele>939.3852</ele>
        <time>2019-04-27T10:19:16Z</time>
      </trkpt>
      <trkpt lat="43.79261" lon="7.12624">
        <ele>940.0282</ele>
        <time>2019-04-27T10:19:21Z</time>
      </trkpt>
      <trkpt lat="43.79264" lon="7.12611">
        <ele>940.24316</ele>
        <time>2019-04-27T10:19:31Z</time>
      </trkpt>
      <trkpt lat="43.79265" lon="7.12601">
        <ele>940.49115</ele>
        <time>2019-04-27T10:19:36Z</time>
      </trkpt>
      <trkpt lat="43.79266" lon="7.12593">
        <ele>940.4782</ele>
        <time>2019-04-27T10:19:41Z</time>
      </trkpt>
      <trkpt lat="43.79266" lon="7.12584">
        <ele>940.4732</ele>
        <time>2019-04-27T10:20:11Z</time>
      </trkpt>
      <trkpt lat="43.79265" lon="7.12595">
        <ele>940.24316</ele>
        <time>2019-04-27T10:20:21Z</time>
      </trkpt>
      <trkpt lat="43.79262" lon="7.12609">
        <ele>940.48016</ele>
        <time>2019-04-27T10:20:40Z</time>
      </trkpt>
      <trkpt lat="43.7926" lon="7.12619">
        <ele>940.2472</ele>
        <time>2019-04-27T10:20:50Z</time>
      </trkpt>
      <trkpt lat="43.7926" lon="7.12627">
        <ele>939.87115</ele>
        <time>2019-04-27T10:21:01Z</time>
      </trkpt>
      <trkpt lat="43.79258" lon="7.12638">
        <ele>938.3742</ele>
        <time>2019-04-27T10:21:11Z</time>
      </trkpt>
      <trkpt lat="43.79255" lon="7.1265">
        <ele>938.1062</ele>
        <time>2019-04-27T10:21:36Z</time>
      </trkpt>
      <trkpt lat="43.79256" lon="7.12647">
        <ele>939.63617</ele>
        <time>2019-04-27T10:23:02Z</time>
      </trkpt>
      <trkpt lat="43.79256" lon="7.12635">
        <ele>940.57916</ele>
        <time>2019-04-27T10:23:27Z</time>
      </trkpt>
      <trkpt lat="43.79258" lon="7.12628">
        <ele>940.73315</ele>
        <time>2019-04-27T10:23:32Z</time>
      </trkpt>
      <trkpt lat="43.79259" lon="7.12616">
        <ele>941.2682</ele>
        <time>2019-04-27T10:23:42Z</time>
      </trkpt>
      <trkpt lat="43.79261" lon="7.12607">
        <ele>941.7242</ele>
        <time>2019-04-27T10:23:52Z</time>
      </trkpt>
      <trkpt lat="43.79263" lon="7.12599">
        <ele>941.9132</ele>
        <time>2019-04-27T10:23:57Z</time>
      </trkpt>
      <trkpt lat="43.79264" lon="7.12594">
        <ele>941.3692</ele>
        <time>2019-04-27T10:24:03Z</time>
      </trkpt>
      <trkpt lat="43.79266" lon="7.12581">
        <ele>941.4922</ele>
        <time>2019-04-27T10:24:12Z</time>
      </trkpt>
      <trkpt lat="43.79265" lon="7.12565">
        <ele>943.5182</ele>
        <time>2019-04-27T10:24:31Z</time>
      </trkpt>
      <trkpt lat="43.79255" lon="7.12562">
        <ele>945.3542</ele>
        <time>2019-04-27T10:24:46Z</time>
      </trkpt>
      <trkpt lat="43.79241" lon="7.1256">
        <ele>947.6612</ele>
        <time>2019-04-27T10:25:06Z</time>
      </trkpt>
      <trkpt lat="43.79241" lon="7.12551">
        <ele>948.7362</ele>
        <time>2019-04-27T10:25:16Z</time>
      </trkpt>
      <trkpt lat="43.79237" lon="7.12549">
        <ele>951.0212</ele>
        <time>2019-04-27T10:25:31Z</time>
      </trkpt>
      <trkpt lat="43.79234" lon="7.12541">
        <ele>951.8262</ele>
        <time>2019-04-27T10:25:36Z</time>
      </trkpt>
      <trkpt lat="43.79226" lon="7.12533">
        <ele>953.9652</ele>
        <time>2019-04-27T10:25:52Z</time>
      </trkpt>
      <trkpt lat="43.79214" lon="7.12541">
        <ele>955.6242</ele>
        <time>2019-04-27T10:26:02Z</time>
      </trkpt>
      <trkpt lat="43.79206" lon="7.12545">
        <ele>956.7362</ele>
        <time>2019-04-27T10:26:12Z</time>
      </trkpt>
      <trkpt lat="43.792" lon="7.12546">
        <ele>958.5862</ele>
        <time>2019-04-27T10:26:22Z</time>
      </trkpt>
      <trkpt lat="43.79186" lon="7.1254">
        <ele>962.55817</ele>
        <time>2019-04-27T10:26:47Z</time>
      </trkpt>
      <trkpt lat="43.79171" lon="7.12527">
        <ele>966.99115</ele>
        <time>2019-04-27T10:27:16Z</time>
      </trkpt>
      <trkpt lat="43.7915" lon="7.12515">
        <ele>972.7582</ele>
        <time>2019-04-27T10:27:57Z</time>
      </trkpt>
      <trkpt lat="43.79139" lon="7.12518">
        <ele>975.31616</ele>
        <time>2019-04-27T10:28:21Z</time>
      </trkpt>
      <trkpt lat="43.79131" lon="7.12508">
        <ele>976.42316</ele>
        <time>2019-04-27T10:28:57Z</time>
      </trkpt>
      <trkpt lat="43.79123" lon="7.12504">
        <ele>978.68317</ele>
        <time>2019-04-27T10:29:07Z</time>
      </trkpt>
      <trkpt lat="43.7912" lon="7.12499">
        <ele>979.41815</ele>
        <time>2019-04-27T10:29:12Z</time>
      </trkpt>
      <trkpt lat="43.79116" lon="7.12495">
        <ele>980.0182</ele>
        <time>2019-04-27T10:29:17Z</time>
      </trkpt>
      <trkpt lat="43.79113" lon="7.12492">
        <ele>980.6712</ele>
        <time>2019-04-27T10:29:22Z</time>
      </trkpt>
      <trkpt lat="43.7911" lon="7.12486">
        <ele>980.9642</ele>
        <time>2019-04-27T10:29:27Z</time>
      </trkpt>
      <trkpt lat="43.79106" lon="7.12492">
        <ele>984.19617</ele>
        <time>2019-04-27T10:30:21Z</time>
      </trkpt>
      <trkpt lat="43.79106" lon="7.12492">
        <ele>984.55615</ele>
        <time>2019-04-27T10:30:42Z</time>
      </trkpt>
      <trkpt lat="43.79106" lon="7.12492">
        <ele>984.55615</ele>
        <time>2019-04-27T10:31:02Z</time>
      </trkpt>
      <trkpt lat="43.79106" lon="7.12492">
        <ele>984.55615</ele>
        <time>2019-04-27T10:31:12Z</time>
      </trkpt>
      <trkpt lat="43.79106" lon="7.12492">
        <ele>984.55615</ele>
        <time>2019-04-27T10:31:21Z</time>
      </trkpt>
      <trkpt lat="43.79106" lon="7.12492">
        <ele>984.55615</ele>
        <time>2019-04-27T10:31:27Z</time>
      </trkpt>
      <trkpt lat="43.79106" lon="7.12492">
        <ele>984.55615</ele>
        <time>2019-04-27T10:31:31Z</time>
      </trkpt>
      <trkpt lat="43.79106" lon="7.12492">
        <ele>984.55615</ele>
        <time>2019-04-27T10:31:41Z</time>
      </trkpt>
      <trkpt lat="43.79106" lon="7.12492">
        <ele>984.55615</ele>
        <time>2019-04-27T10:31:46Z</time>
      </trkpt>
      <trkpt lat="43.79106" lon="7.12492">
        <ele>984.55615</ele>
        <time>2019-04-27T10:31:56Z</time>
      </trkpt>
      <trkpt lat="43.79013" lon="7.12479">
        <ele>994.8272</ele>
        <time>2019-04-27T10:32:17Z</time>
      </trkpt>
      <trkpt lat="43.7901" lon="7.12487">
        <ele>994.74817</ele>
        <time>2019-04-27T10:32:26Z</time>
      </trkpt>
      <trkpt lat="43.79013" lon="7.12497">
        <ele>995.2282</ele>
        <time>2019-04-27T10:34:06Z</time>
      </trkpt>
      <trkpt lat="43.79009" lon="7.12495">
        <ele>995.1402</ele>
        <time>2019-04-27T10:34:16Z</time>
      </trkpt>
      <trkpt lat="43.7901" lon="7.12497">
        <ele>994.5932</ele>
        <time>2019-04-27T10:35:16Z</time>
      </trkpt>
    </trkseg>
  </trk>
</gpx>